<?xml version="1.0" encoding="UTF-8" standalone="no" ?>
<gpx xmlns="http://www.topografix.com/GPX/1/1" xmlns:xsi="http://www.w3.org/2001/XMLSchema-instance" xsi:schemaLocation="http://www.topografix.com/GPX/1/1 http://www.topografix.com/GPX/1/1/gpx.xsd" version="1.1" creator="VisuGPX - https://www.visugpx.com">
  <metadata>
    <name>122011</name>
    <desc><![CDATA[superbe rando ce dimanche]]></desc>
  </metadata>
  <trk>
    <name><![CDATA[ACTIVE LOG072323]]></name>
    <trkseg>
      <trkpt lat="48.38266" lon="-4.50622">
        <ele>93.609</ele>
        <time>2011-04-10T05:23:23Z</time>
      </trkpt>
      <trkpt lat="48.38266" lon="-4.50622">
        <ele>90.571</ele>
        <time>2011-04-10T05:23:58Z</time>
      </trkpt>
      <trkpt lat="48.38266" lon="-4.50622">
        <ele>91.361</ele>
        <time>2011-04-10T05:24:03Z</time>
      </trkpt>
      <trkpt lat="48.38266" lon="-4.50622">
        <ele>89.863</ele>
        <time>2011-04-10T05:24:04Z</time>
      </trkpt>
      <trkpt lat="48.38266" lon="-4.50622">
        <ele>87.625</ele>
        <time>2011-04-10T05:24:22Z</time>
      </trkpt>
      <trkpt lat="48.3826" lon="-4.5035">
        <ele>87.379</ele>
        <time>2011-04-10T05:24:37Z</time>
      </trkpt>
      <trkpt lat="48.38249" lon="-4.50324">
        <ele>86.303</ele>
        <time>2011-04-10T05:24:51Z</time>
      </trkpt>
      <trkpt lat="48.38226" lon="-4.50264">
        <ele>84.404</ele>
        <time>2011-04-10T05:25:00Z</time>
      </trkpt>
      <trkpt lat="48.38232" lon="-4.50217">
        <ele>83.851</ele>
        <time>2011-04-10T05:25:05Z</time>
      </trkpt>
      <trkpt lat="48.38257" lon="-4.50211">
        <ele>83.307</ele>
        <time>2011-04-10T05:25:11Z</time>
      </trkpt>
      <trkpt lat="48.38311" lon="-4.50227">
        <ele>80.136</ele>
        <time>2011-04-10T05:25:23Z</time>
      </trkpt>
      <trkpt lat="48.38345" lon="-4.50237">
        <ele>77.761</ele>
        <time>2011-04-10T05:25:29Z</time>
      </trkpt>
      <trkpt lat="48.38383" lon="-4.50242">
        <ele>74.463</ele>
        <time>2011-04-10T05:25:37Z</time>
      </trkpt>
      <trkpt lat="48.38383" lon="-4.50242">
        <ele>73.433</ele>
        <time>2011-04-10T05:25:46Z</time>
      </trkpt>
      <trkpt lat="48.38383" lon="-4.50242">
        <ele>72.846</ele>
        <time>2011-04-10T05:26:05Z</time>
      </trkpt>
      <trkpt lat="48.3843" lon="-4.50256">
        <ele>74.167</ele>
        <time>2011-04-10T05:26:15Z</time>
      </trkpt>
      <trkpt lat="48.38433" lon="-4.50256">
        <ele>74.934</ele>
        <time>2011-04-10T05:26:17Z</time>
      </trkpt>
      <trkpt lat="48.38454" lon="-4.50261">
        <ele>78.197</ele>
        <time>2011-04-10T05:26:26Z</time>
      </trkpt>
      <trkpt lat="48.38497" lon="-4.50273">
        <ele>81.391</ele>
        <time>2011-04-10T05:26:38Z</time>
      </trkpt>
      <trkpt lat="48.38521" lon="-4.50281">
        <ele>84.229</ele>
        <time>2011-04-10T05:26:52Z</time>
      </trkpt>
      <trkpt lat="48.38552" lon="-4.5029">
        <ele>87.141</ele>
        <time>2011-04-10T05:27:03Z</time>
      </trkpt>
      <trkpt lat="48.38582" lon="-4.50296">
        <ele>90.135</ele>
        <time>2011-04-10T05:27:17Z</time>
      </trkpt>
      <trkpt lat="48.38624" lon="-4.50304">
        <ele>91.543</ele>
        <time>2011-04-10T05:27:28Z</time>
      </trkpt>
      <trkpt lat="48.38691" lon="-4.50314">
        <ele>94.135</ele>
        <time>2011-04-10T05:27:49Z</time>
      </trkpt>
      <trkpt lat="48.38742" lon="-4.50325">
        <ele>93.02</ele>
        <time>2011-04-10T05:28:03Z</time>
      </trkpt>
      <trkpt lat="48.38784" lon="-4.50336">
        <ele>90.999</ele>
        <time>2011-04-10T05:28:11Z</time>
      </trkpt>
      <trkpt lat="48.38812" lon="-4.50341">
        <ele>87.279</ele>
        <time>2011-04-10T05:28:16Z</time>
      </trkpt>
      <trkpt lat="48.3886" lon="-4.5035">
        <ele>83.829</ele>
        <time>2011-04-10T05:28:23Z</time>
      </trkpt>
      <trkpt lat="48.38875" lon="-4.50353">
        <ele>83.134</ele>
        <time>2011-04-10T05:28:25Z</time>
      </trkpt>
      <trkpt lat="48.38918" lon="-4.50361">
        <ele>79.737</ele>
        <time>2011-04-10T05:28:31Z</time>
      </trkpt>
      <trkpt lat="48.3895" lon="-4.50366">
        <ele>76.245</ele>
        <time>2011-04-10T05:28:36Z</time>
      </trkpt>
      <trkpt lat="48.38979" lon="-4.50362">
        <ele>72.943</ele>
        <time>2011-04-10T05:28:41Z</time>
      </trkpt>
      <trkpt lat="48.38996" lon="-4.50359">
        <ele>71.312</ele>
        <time>2011-04-10T05:28:44Z</time>
      </trkpt>
      <trkpt lat="48.39011" lon="-4.50358">
        <ele>70.336</ele>
        <time>2011-04-10T05:28:47Z</time>
      </trkpt>
      <trkpt lat="48.3909" lon="-4.50361">
        <ele>68.672</ele>
        <time>2011-04-10T05:29:04Z</time>
      </trkpt>
      <trkpt lat="48.39099" lon="-4.50361">
        <ele>68.648</ele>
        <time>2011-04-10T05:29:06Z</time>
      </trkpt>
      <trkpt lat="48.39147" lon="-4.50369">
        <ele>68.723</ele>
        <time>2011-04-10T05:29:17Z</time>
      </trkpt>
      <trkpt lat="48.39173" lon="-4.50377">
        <ele>69.891</ele>
        <time>2011-04-10T05:29:23Z</time>
      </trkpt>
      <trkpt lat="48.39203" lon="-4.50362">
        <ele>69.489</ele>
        <time>2011-04-10T05:29:33Z</time>
      </trkpt>
      <trkpt lat="48.39211" lon="-4.50323">
        <ele>69.221</ele>
        <time>2011-04-10T05:29:35Z</time>
      </trkpt>
      <trkpt lat="48.39242" lon="-4.50162">
        <ele>71.662</ele>
        <time>2011-04-10T05:29:59Z</time>
      </trkpt>
      <trkpt lat="48.39284" lon="-4.49958">
        <ele>72.08</ele>
        <time>2011-04-10T05:30:27Z</time>
      </trkpt>
      <trkpt lat="48.393" lon="-4.49886">
        <ele>70.817</ele>
        <time>2011-04-10T05:30:36Z</time>
      </trkpt>
      <trkpt lat="48.3932" lon="-4.49793">
        <ele>67.56</ele>
        <time>2011-04-10T05:30:46Z</time>
      </trkpt>
      <trkpt lat="48.39347" lon="-4.49661">
        <ele>63.768</ele>
        <time>2011-04-10T05:30:58Z</time>
      </trkpt>
      <trkpt lat="48.39368" lon="-4.49559">
        <ele>61.698</ele>
        <time>2011-04-10T05:31:08Z</time>
      </trkpt>
      <trkpt lat="48.39388" lon="-4.49461">
        <ele>59.843</ele>
        <time>2011-04-10T05:31:18Z</time>
      </trkpt>
      <trkpt lat="48.39392" lon="-4.49439">
        <ele>60.111</ele>
        <time>2011-04-10T05:31:21Z</time>
      </trkpt>
      <trkpt lat="48.394" lon="-4.49396">
        <ele>58.688</ele>
        <time>2011-04-10T05:31:31Z</time>
      </trkpt>
      <trkpt lat="48.39412" lon="-4.49359">
        <ele>57.331</ele>
        <time>2011-04-10T05:31:42Z</time>
      </trkpt>
      <trkpt lat="48.39386" lon="-4.49296">
        <ele>58.021</ele>
        <time>2011-04-10T05:31:52Z</time>
      </trkpt>
      <trkpt lat="48.39369" lon="-4.4926">
        <ele>58.297</ele>
        <time>2011-04-10T05:31:59Z</time>
      </trkpt>
      <trkpt lat="48.39356" lon="-4.49236">
        <ele>58.618</ele>
        <time>2011-04-10T05:32:04Z</time>
      </trkpt>
      <trkpt lat="48.39346" lon="-4.49216">
        <ele>58.306</ele>
        <time>2011-04-10T05:32:08Z</time>
      </trkpt>
      <trkpt lat="48.39314" lon="-4.49163">
        <ele>61.778</ele>
        <time>2011-04-10T05:32:21Z</time>
      </trkpt>
      <trkpt lat="48.39293" lon="-4.49126">
        <ele>64.885</ele>
        <time>2011-04-10T05:32:36Z</time>
      </trkpt>
      <trkpt lat="48.39246" lon="-4.4904">
        <ele>67.473</ele>
        <time>2011-04-10T05:32:54Z</time>
      </trkpt>
      <trkpt lat="48.39216" lon="-4.48982">
        <ele>69.489</ele>
        <time>2011-04-10T05:33:08Z</time>
      </trkpt>
      <trkpt lat="48.39188" lon="-4.48926">
        <ele>71.124</ele>
        <time>2011-04-10T05:33:21Z</time>
      </trkpt>
      <trkpt lat="48.39146" lon="-4.48845">
        <ele>72.498</ele>
        <time>2011-04-10T05:33:40Z</time>
      </trkpt>
      <trkpt lat="48.39141" lon="-4.48814">
        <ele>72.3</ele>
        <time>2011-04-10T05:33:48Z</time>
      </trkpt>
      <trkpt lat="48.39197" lon="-4.4875">
        <ele>74.798</ele>
        <time>2011-04-10T05:34:08Z</time>
      </trkpt>
      <trkpt lat="48.39199" lon="-4.48749">
        <ele>75.692</ele>
        <time>2011-04-10T05:34:14Z</time>
      </trkpt>
      <trkpt lat="48.39311" lon="-4.48782">
        <ele>77.906</ele>
        <time>2011-04-10T05:34:40Z</time>
      </trkpt>
      <trkpt lat="48.39393" lon="-4.48805">
        <ele>79.752</ele>
        <time>2011-04-10T05:35:01Z</time>
      </trkpt>
      <trkpt lat="48.395" lon="-4.48836">
        <ele>82.979</ele>
        <time>2011-04-10T05:35:27Z</time>
      </trkpt>
      <trkpt lat="48.39624" lon="-4.48869">
        <ele>81.497</ele>
        <time>2011-04-10T05:35:55Z</time>
      </trkpt>
      <trkpt lat="48.39666" lon="-4.48882">
        <ele>79.161</ele>
        <time>2011-04-10T05:36:02Z</time>
      </trkpt>
      <trkpt lat="48.39733" lon="-4.48902">
        <ele>77.591</ele>
        <time>2011-04-10T05:36:16Z</time>
      </trkpt>
      <trkpt lat="48.39736" lon="-4.48903">
        <ele>77.49</ele>
        <time>2011-04-10T05:36:29Z</time>
      </trkpt>
      <trkpt lat="48.39752" lon="-4.48907">
        <ele>76.415</ele>
        <time>2011-04-10T05:36:50Z</time>
      </trkpt>
      <trkpt lat="48.3978" lon="-4.48893">
        <ele>75.467</ele>
        <time>2011-04-10T05:36:55Z</time>
      </trkpt>
      <trkpt lat="48.398" lon="-4.48878">
        <ele>74.935</ele>
        <time>2011-04-10T05:36:59Z</time>
      </trkpt>
      <trkpt lat="48.39813" lon="-4.48857">
        <ele>75.61</ele>
        <time>2011-04-10T05:37:03Z</time>
      </trkpt>
      <trkpt lat="48.39881" lon="-4.48749">
        <ele>74.889</ele>
        <time>2011-04-10T05:37:24Z</time>
      </trkpt>
      <trkpt lat="48.39881" lon="-4.48749">
        <ele>72.815</ele>
        <time>2011-04-10T05:37:28Z</time>
      </trkpt>
      <trkpt lat="48.39962" lon="-4.48628">
        <ele>71.256</ele>
        <time>2011-04-10T05:37:45Z</time>
      </trkpt>
      <trkpt lat="48.39967" lon="-4.4862">
        <ele>70.889</ele>
        <time>2011-04-10T05:37:57Z</time>
      </trkpt>
      <trkpt lat="48.39975" lon="-4.48607">
        <ele>69.312</ele>
        <time>2011-04-10T05:38:19Z</time>
      </trkpt>
      <trkpt lat="48.40034" lon="-4.48522">
        <ele>66.055</ele>
        <time>2011-04-10T05:38:31Z</time>
      </trkpt>
      <trkpt lat="48.40054" lon="-4.48493">
        <ele>66.92</ele>
        <time>2011-04-10T05:38:36Z</time>
      </trkpt>
      <trkpt lat="48.40099" lon="-4.48431">
        <ele>70.028</ele>
        <time>2011-04-10T05:38:48Z</time>
      </trkpt>
      <trkpt lat="48.40134" lon="-4.48371">
        <ele>73.085</ele>
        <time>2011-04-10T05:39:01Z</time>
      </trkpt>
      <trkpt lat="48.40169" lon="-4.48328">
        <ele>76.369</ele>
        <time>2011-04-10T05:39:15Z</time>
      </trkpt>
      <trkpt lat="48.40245" lon="-4.4821">
        <ele>79.446</ele>
        <time>2011-04-10T05:39:41Z</time>
      </trkpt>
      <trkpt lat="48.4027" lon="-4.48174">
        <ele>79.645</ele>
        <time>2011-04-10T05:39:54Z</time>
      </trkpt>
      <trkpt lat="48.4034" lon="-4.4807">
        <ele>79.356</ele>
        <time>2011-04-10T05:40:16Z</time>
      </trkpt>
      <trkpt lat="48.40433" lon="-4.47934">
        <ele>78.457</ele>
        <time>2011-04-10T05:40:42Z</time>
      </trkpt>
      <trkpt lat="48.40504" lon="-4.47832">
        <ele>77.947</ele>
        <time>2011-04-10T05:41:02Z</time>
      </trkpt>
      <trkpt lat="48.40512" lon="-4.47821">
        <ele>77.265</ele>
        <time>2011-04-10T05:41:04Z</time>
      </trkpt>
      <trkpt lat="48.4052" lon="-4.47809">
        <ele>76.791</ele>
        <time>2011-04-10T05:41:06Z</time>
      </trkpt>
      <trkpt lat="48.40535" lon="-4.47787">
        <ele>76.222</ele>
        <time>2011-04-10T05:41:10Z</time>
      </trkpt>
      <trkpt lat="48.40608" lon="-4.47673">
        <ele>79.294</ele>
        <time>2011-04-10T05:41:30Z</time>
      </trkpt>
      <trkpt lat="48.40619" lon="-4.47657">
        <ele>79.447</ele>
        <time>2011-04-10T05:41:33Z</time>
      </trkpt>
      <trkpt lat="48.40623" lon="-4.4765">
        <ele>77.458</ele>
        <time>2011-04-10T05:41:37Z</time>
      </trkpt>
      <trkpt lat="48.40652" lon="-4.47616">
        <ele>76.092</ele>
        <time>2011-04-10T05:41:40Z</time>
      </trkpt>
      <trkpt lat="48.40669" lon="-4.47587">
        <ele>73.924</ele>
        <time>2011-04-10T05:41:44Z</time>
      </trkpt>
      <trkpt lat="48.40681" lon="-4.47551">
        <ele>73.422</ele>
        <time>2011-04-10T05:41:48Z</time>
      </trkpt>
      <trkpt lat="48.40715" lon="-4.47537">
        <ele>71.726</ele>
        <time>2011-04-10T05:41:54Z</time>
      </trkpt>
      <trkpt lat="48.40736" lon="-4.47535">
        <ele>70.913</ele>
        <time>2011-04-10T05:41:57Z</time>
      </trkpt>
      <trkpt lat="48.40788" lon="-4.47546">
        <ele>74.408</ele>
        <time>2011-04-10T05:42:07Z</time>
      </trkpt>
      <trkpt lat="48.40826" lon="-4.47566">
        <ele>76.444</ele>
        <time>2011-04-10T05:42:17Z</time>
      </trkpt>
      <trkpt lat="48.40895" lon="-4.47602">
        <ele>78.025</ele>
        <time>2011-04-10T05:42:34Z</time>
      </trkpt>
      <trkpt lat="48.40999" lon="-4.47622">
        <ele>80.578</ele>
        <time>2011-04-10T05:42:58Z</time>
      </trkpt>
      <trkpt lat="48.41087" lon="-4.47629">
        <ele>79.542</ele>
        <time>2011-04-10T05:43:16Z</time>
      </trkpt>
      <trkpt lat="48.41198" lon="-4.47596">
        <ele>80.989</ele>
        <time>2011-04-10T05:43:39Z</time>
      </trkpt>
      <trkpt lat="48.41231" lon="-4.47588">
        <ele>80.971</ele>
        <time>2011-04-10T05:43:46Z</time>
      </trkpt>
      <trkpt lat="48.41243" lon="-4.47566">
        <ele>81.532</ele>
        <time>2011-04-10T05:43:50Z</time>
      </trkpt>
      <trkpt lat="48.41263" lon="-4.47573">
        <ele>81.322</ele>
        <time>2011-04-10T05:43:55Z</time>
      </trkpt>
      <trkpt lat="48.41296" lon="-4.47561">
        <ele>82.463</ele>
        <time>2011-04-10T05:44:01Z</time>
      </trkpt>
      <trkpt lat="48.41389" lon="-4.47521">
        <ele>85.538</ele>
        <time>2011-04-10T05:44:24Z</time>
      </trkpt>
      <trkpt lat="48.41475" lon="-4.47515">
        <ele>88.293</ele>
        <time>2011-04-10T05:44:46Z</time>
      </trkpt>
      <trkpt lat="48.41529" lon="-4.47533">
        <ele>91.386</ele>
        <time>2011-04-10T05:45:01Z</time>
      </trkpt>
      <trkpt lat="48.41576" lon="-4.47552">
        <ele>94.666</ele>
        <time>2011-04-10T05:45:14Z</time>
      </trkpt>
      <trkpt lat="48.41618" lon="-4.47575">
        <ele>97.717</ele>
        <time>2011-04-10T05:45:27Z</time>
      </trkpt>
      <trkpt lat="48.41658" lon="-4.47597">
        <ele>100.972</ele>
        <time>2011-04-10T05:45:38Z</time>
      </trkpt>
      <trkpt lat="48.4171" lon="-4.47626">
        <ele>102.5</ele>
        <time>2011-04-10T05:45:53Z</time>
      </trkpt>
      <trkpt lat="48.41796" lon="-4.47667">
        <ele>99.514</ele>
        <time>2011-04-10T05:46:14Z</time>
      </trkpt>
      <trkpt lat="48.41873" lon="-4.47676">
        <ele>96.29</ele>
        <time>2011-04-10T05:46:27Z</time>
      </trkpt>
      <trkpt lat="48.41957" lon="-4.47687">
        <ele>92.87</ele>
        <time>2011-04-10T05:46:39Z</time>
      </trkpt>
      <trkpt lat="48.42039" lon="-4.47704">
        <ele>89.297</ele>
        <time>2011-04-10T05:46:50Z</time>
      </trkpt>
      <trkpt lat="48.4207" lon="-4.47711">
        <ele>88.663</ele>
        <time>2011-04-10T05:46:54Z</time>
      </trkpt>
      <trkpt lat="48.42108" lon="-4.4771">
        <ele>88.631</ele>
        <time>2011-04-10T05:46:59Z</time>
      </trkpt>
      <trkpt lat="48.42169" lon="-4.47686">
        <ele>91.845</ele>
        <time>2011-04-10T05:47:10Z</time>
      </trkpt>
      <trkpt lat="48.4224" lon="-4.47645">
        <ele>94.938</ele>
        <time>2011-04-10T05:47:26Z</time>
      </trkpt>
      <trkpt lat="48.42272" lon="-4.47624">
        <ele>96.866</ele>
        <time>2011-04-10T05:47:34Z</time>
      </trkpt>
      <trkpt lat="48.42284" lon="-4.47616">
        <ele>97.39</ele>
        <time>2011-04-10T05:47:38Z</time>
      </trkpt>
      <trkpt lat="48.42284" lon="-4.47616">
        <ele>97.115</ele>
        <time>2011-04-10T05:47:40Z</time>
      </trkpt>
      <trkpt lat="48.42305" lon="-4.47578">
        <ele>97.044</ele>
        <time>2011-04-10T05:47:44Z</time>
      </trkpt>
      <trkpt lat="48.42394" lon="-4.47414">
        <ele>96.439</ele>
        <time>2011-04-10T05:48:12Z</time>
      </trkpt>
      <trkpt lat="48.42436" lon="-4.47326">
        <ele>97.119</ele>
        <time>2011-04-10T05:48:26Z</time>
      </trkpt>
      <trkpt lat="48.42452" lon="-4.47311">
        <ele>97.769</ele>
        <time>2011-04-10T05:48:30Z</time>
      </trkpt>
      <trkpt lat="48.42564" lon="-4.47276">
        <ele>98.714</ele>
        <time>2011-04-10T05:48:53Z</time>
      </trkpt>
      <trkpt lat="48.42567" lon="-4.47277">
        <ele>98.951</ele>
        <time>2011-04-10T05:48:56Z</time>
      </trkpt>
      <trkpt lat="48.42589" lon="-4.47277">
        <ele>99.179</ele>
        <time>2011-04-10T05:49:00Z</time>
      </trkpt>
      <trkpt lat="48.42589" lon="-4.47285">
        <ele>99.373</ele>
        <time>2011-04-10T05:49:02Z</time>
      </trkpt>
      <trkpt lat="48.42623" lon="-4.47316">
        <ele>98.972</ele>
        <time>2011-04-10T05:49:08Z</time>
      </trkpt>
      <trkpt lat="48.42716" lon="-4.4735">
        <ele>97.099</ele>
        <time>2011-04-10T05:49:25Z</time>
      </trkpt>
      <trkpt lat="48.42732" lon="-4.47356">
        <ele>97.461</ele>
        <time>2011-04-10T05:49:28Z</time>
      </trkpt>
      <trkpt lat="48.42752" lon="-4.47362">
        <ele>97.985</ele>
        <time>2011-04-10T05:49:33Z</time>
      </trkpt>
      <trkpt lat="48.42761" lon="-4.47367">
        <ele>97.918</ele>
        <time>2011-04-10T05:49:38Z</time>
      </trkpt>
      <trkpt lat="48.42754" lon="-4.47395">
        <ele>97.904</ele>
        <time>2011-04-10T05:49:41Z</time>
      </trkpt>
      <trkpt lat="48.42733" lon="-4.47536">
        <ele>99.218</ele>
        <time>2011-04-10T05:50:01Z</time>
      </trkpt>
      <trkpt lat="48.42706" lon="-4.47612">
        <ele>98.697</ele>
        <time>2011-04-10T05:50:12Z</time>
      </trkpt>
      <trkpt lat="48.42725" lon="-4.47646">
        <ele>99.498</ele>
        <time>2011-04-10T05:50:19Z</time>
      </trkpt>
      <trkpt lat="48.4273" lon="-4.47647">
        <ele>99.528</ele>
        <time>2011-04-10T05:50:20Z</time>
      </trkpt>
      <trkpt lat="48.42864" lon="-4.47676">
        <ele>99.85</ele>
        <time>2011-04-10T05:50:45Z</time>
      </trkpt>
      <trkpt lat="48.43021" lon="-4.4771">
        <ele>98.238</ele>
        <time>2011-04-10T05:51:12Z</time>
      </trkpt>
      <trkpt lat="48.43089" lon="-4.47728">
        <ele>94.717</ele>
        <time>2011-04-10T05:51:23Z</time>
      </trkpt>
      <trkpt lat="48.43118" lon="-4.47735">
        <ele>93.127</ele>
        <time>2011-04-10T05:51:27Z</time>
      </trkpt>
      <trkpt lat="48.43164" lon="-4.47747">
        <ele>90.513</ele>
        <time>2011-04-10T05:51:33Z</time>
      </trkpt>
      <trkpt lat="48.43215" lon="-4.4776">
        <ele>87.179</ele>
        <time>2011-04-10T05:51:39Z</time>
      </trkpt>
      <trkpt lat="48.43224" lon="-4.47763">
        <ele>86.9</ele>
        <time>2011-04-10T05:51:40Z</time>
      </trkpt>
      <trkpt lat="48.43257" lon="-4.47781">
        <ele>83.756</ele>
        <time>2011-04-10T05:51:44Z</time>
      </trkpt>
      <trkpt lat="48.43265" lon="-4.47787">
        <ele>83.652</ele>
        <time>2011-04-10T05:51:45Z</time>
      </trkpt>
      <trkpt lat="48.43335" lon="-4.47837">
        <ele>86.841</ele>
        <time>2011-04-10T05:51:55Z</time>
      </trkpt>
      <trkpt lat="48.43355" lon="-4.47852">
        <ele>87.981</ele>
        <time>2011-04-10T05:51:59Z</time>
      </trkpt>
      <trkpt lat="48.43422" lon="-4.47884">
        <ele>88.943</ele>
        <time>2011-04-10T05:52:12Z</time>
      </trkpt>
      <trkpt lat="48.43451" lon="-4.47891">
        <ele>87.327</ele>
        <time>2011-04-10T05:52:17Z</time>
      </trkpt>
      <trkpt lat="48.43464" lon="-4.47895">
        <ele>86.61</ele>
        <time>2011-04-10T05:52:19Z</time>
      </trkpt>
      <trkpt lat="48.43494" lon="-4.47898">
        <ele>84.172</ele>
        <time>2011-04-10T05:52:23Z</time>
      </trkpt>
      <trkpt lat="48.43502" lon="-4.47897">
        <ele>83.663</ele>
        <time>2011-04-10T05:52:24Z</time>
      </trkpt>
      <trkpt lat="48.43559" lon="-4.47892">
        <ele>79.687</ele>
        <time>2011-04-10T05:52:31Z</time>
      </trkpt>
      <trkpt lat="48.43572" lon="-4.4789">
        <ele>77.165</ele>
        <time>2011-04-10T05:52:35Z</time>
      </trkpt>
      <trkpt lat="48.43642" lon="-4.47884">
        <ele>73.911</ele>
        <time>2011-04-10T05:52:40Z</time>
      </trkpt>
      <trkpt lat="48.43667" lon="-4.47882">
        <ele>73.599</ele>
        <time>2011-04-10T05:52:43Z</time>
      </trkpt>
      <trkpt lat="48.43709" lon="-4.4785">
        <ele>74.959</ele>
        <time>2011-04-10T05:52:49Z</time>
      </trkpt>
      <trkpt lat="48.43798" lon="-4.47733">
        <ele>76.879</ele>
        <time>2011-04-10T05:53:07Z</time>
      </trkpt>
      <trkpt lat="48.43882" lon="-4.47687">
        <ele>79.179</ele>
        <time>2011-04-10T05:53:24Z</time>
      </trkpt>
      <trkpt lat="48.43887" lon="-4.47685">
        <ele>79.552</ele>
        <time>2011-04-10T05:53:25Z</time>
      </trkpt>
      <trkpt lat="48.44017" lon="-4.47685">
        <ele>82.296</ele>
        <time>2011-04-10T05:53:50Z</time>
      </trkpt>
      <trkpt lat="48.44028" lon="-4.47686">
        <ele>81.877</ele>
        <time>2011-04-10T05:53:52Z</time>
      </trkpt>
      <trkpt lat="48.44038" lon="-4.47688">
        <ele>81.427</ele>
        <time>2011-04-10T05:53:54Z</time>
      </trkpt>
      <trkpt lat="48.44091" lon="-4.47689">
        <ele>77.673</ele>
        <time>2011-04-10T05:54:03Z</time>
      </trkpt>
      <trkpt lat="48.44185" lon="-4.47654">
        <ele>77.233</ele>
        <time>2011-04-10T05:54:18Z</time>
      </trkpt>
      <trkpt lat="48.4425" lon="-4.47623">
        <ele>80.452</ele>
        <time>2011-04-10T05:54:28Z</time>
      </trkpt>
      <trkpt lat="48.44298" lon="-4.47599">
        <ele>83.553</ele>
        <time>2011-04-10T05:54:39Z</time>
      </trkpt>
      <trkpt lat="48.44336" lon="-4.47579">
        <ele>85.942</ele>
        <time>2011-04-10T05:54:48Z</time>
      </trkpt>
      <trkpt lat="48.44429" lon="-4.47534">
        <ele>86.102</ele>
        <time>2011-04-10T05:55:09Z</time>
      </trkpt>
      <trkpt lat="48.44469" lon="-4.47525">
        <ele>82.806</ele>
        <time>2011-04-10T05:55:15Z</time>
      </trkpt>
      <trkpt lat="48.445" lon="-4.47521">
        <ele>79.774</ele>
        <time>2011-04-10T05:55:19Z</time>
      </trkpt>
      <trkpt lat="48.44517" lon="-4.47522">
        <ele>78.894</ele>
        <time>2011-04-10T05:55:21Z</time>
      </trkpt>
      <trkpt lat="48.44546" lon="-4.47538">
        <ele>74.477</ele>
        <time>2011-04-10T05:55:26Z</time>
      </trkpt>
      <trkpt lat="48.44645" lon="-4.47614">
        <ele>77.006</ele>
        <time>2011-04-10T05:55:39Z</time>
      </trkpt>
      <trkpt lat="48.44675" lon="-4.47637">
        <ele>79.024</ele>
        <time>2011-04-10T05:55:46Z</time>
      </trkpt>
      <trkpt lat="48.44712" lon="-4.47643">
        <ele>80.753</ele>
        <time>2011-04-10T05:55:52Z</time>
      </trkpt>
      <trkpt lat="48.44726" lon="-4.47645">
        <ele>81.388</ele>
        <time>2011-04-10T05:55:55Z</time>
      </trkpt>
      <trkpt lat="48.44762" lon="-4.47646">
        <ele>83.455</ele>
        <time>2011-04-10T05:56:03Z</time>
      </trkpt>
      <trkpt lat="48.44773" lon="-4.47646">
        <ele>83.784</ele>
        <time>2011-04-10T05:56:06Z</time>
      </trkpt>
      <trkpt lat="48.44874" lon="-4.47628">
        <ele>85.123</ele>
        <time>2011-04-10T05:56:27Z</time>
      </trkpt>
      <trkpt lat="48.44915" lon="-4.47628">
        <ele>86.235</ele>
        <time>2011-04-10T05:56:36Z</time>
      </trkpt>
      <trkpt lat="48.44938" lon="-4.47594">
        <ele>87.95</ele>
        <time>2011-04-10T05:56:43Z</time>
      </trkpt>
      <trkpt lat="48.44965" lon="-4.47489">
        <ele>91.296</ele>
        <time>2011-04-10T05:57:00Z</time>
      </trkpt>
      <trkpt lat="48.44998" lon="-4.47327">
        <ele>93.727</ele>
        <time>2011-04-10T05:57:24Z</time>
      </trkpt>
      <trkpt lat="48.45005" lon="-4.47264">
        <ele>92.699</ele>
        <time>2011-04-10T05:57:34Z</time>
      </trkpt>
      <trkpt lat="48.44992" lon="-4.47199">
        <ele>91.252</ele>
        <time>2011-04-10T05:57:40Z</time>
      </trkpt>
      <trkpt lat="48.45008" lon="-4.47166">
        <ele>89.519</ele>
        <time>2011-04-10T05:57:44Z</time>
      </trkpt>
      <trkpt lat="48.45036" lon="-4.47106">
        <ele>87.101</ele>
        <time>2011-04-10T05:57:51Z</time>
      </trkpt>
      <trkpt lat="48.45044" lon="-4.47084">
        <ele>85.369</ele>
        <time>2011-04-10T05:57:55Z</time>
      </trkpt>
      <trkpt lat="48.4506" lon="-4.47004">
        <ele>84.023</ele>
        <time>2011-04-10T05:58:00Z</time>
      </trkpt>
      <trkpt lat="48.45056" lon="-4.46965">
        <ele>82.854</ele>
        <time>2011-04-10T05:58:03Z</time>
      </trkpt>
      <trkpt lat="48.45032" lon="-4.46832">
        <ele>84.083</ele>
        <time>2011-04-10T05:58:15Z</time>
      </trkpt>
      <trkpt lat="48.45025" lon="-4.46798">
        <ele>85.224</ele>
        <time>2011-04-10T05:58:19Z</time>
      </trkpt>
      <trkpt lat="48.45027" lon="-4.46762">
        <ele>86.878</ele>
        <time>2011-04-10T05:58:25Z</time>
      </trkpt>
      <trkpt lat="48.45076" lon="-4.46696">
        <ele>90.259</ele>
        <time>2011-04-10T05:58:38Z</time>
      </trkpt>
      <trkpt lat="48.45118" lon="-4.4664">
        <ele>92.611</ele>
        <time>2011-04-10T05:58:51Z</time>
      </trkpt>
      <trkpt lat="48.45181" lon="-4.46615">
        <ele>90.218</ele>
        <time>2011-04-10T05:59:05Z</time>
      </trkpt>
      <trkpt lat="48.45247" lon="-4.46546">
        <ele>89.18</ele>
        <time>2011-04-10T05:59:20Z</time>
      </trkpt>
      <trkpt lat="48.45289" lon="-4.465">
        <ele>89.791</ele>
        <time>2011-04-10T05:59:30Z</time>
      </trkpt>
      <trkpt lat="48.45297" lon="-4.46491">
        <ele>89.589</ele>
        <time>2011-04-10T05:59:33Z</time>
      </trkpt>
      <trkpt lat="48.45321" lon="-4.46455">
        <ele>89.465</ele>
        <time>2011-04-10T05:59:38Z</time>
      </trkpt>
      <trkpt lat="48.45428" lon="-4.46314">
        <ele>90.797</ele>
        <time>2011-04-10T06:00:05Z</time>
      </trkpt>
      <trkpt lat="48.45521" lon="-4.46211">
        <ele>93.804</ele>
        <time>2011-04-10T06:00:29Z</time>
      </trkpt>
      <trkpt lat="48.45626" lon="-4.46124">
        <ele>94.624</ele>
        <time>2011-04-10T06:00:53Z</time>
      </trkpt>
      <trkpt lat="48.45752" lon="-4.46012">
        <ele>94.453</ele>
        <time>2011-04-10T06:01:20Z</time>
      </trkpt>
      <trkpt lat="48.45839" lon="-4.45911">
        <ele>92.684</ele>
        <time>2011-04-10T06:01:39Z</time>
      </trkpt>
      <trkpt lat="48.45885" lon="-4.45839">
        <ele>89.42</ele>
        <time>2011-04-10T06:01:50Z</time>
      </trkpt>
      <trkpt lat="48.4597" lon="-4.45706">
        <ele>88.04</ele>
        <time>2011-04-10T06:02:08Z</time>
      </trkpt>
      <trkpt lat="48.46061" lon="-4.45561">
        <ele>87.195</ele>
        <time>2011-04-10T06:02:30Z</time>
      </trkpt>
      <trkpt lat="48.46183" lon="-4.4537">
        <ele>86.585</ele>
        <time>2011-04-10T06:02:59Z</time>
      </trkpt>
      <trkpt lat="48.4626" lon="-4.45249">
        <ele>88.819</ele>
        <time>2011-04-10T06:03:20Z</time>
      </trkpt>
      <trkpt lat="48.46325" lon="-4.45144">
        <ele>92.096</ele>
        <time>2011-04-10T06:03:39Z</time>
      </trkpt>
      <trkpt lat="48.46378" lon="-4.45054">
        <ele>95.348</ele>
        <time>2011-04-10T06:03:58Z</time>
      </trkpt>
      <trkpt lat="48.46391" lon="-4.45">
        <ele>96.223</ele>
        <time>2011-04-10T06:04:04Z</time>
      </trkpt>
      <trkpt lat="48.46387" lon="-4.44972">
        <ele>96.505</ele>
        <time>2011-04-10T06:04:09Z</time>
      </trkpt>
      <trkpt lat="48.46387" lon="-4.44972">
        <ele>96.089</ele>
        <time>2011-04-10T06:04:11Z</time>
      </trkpt>
      <trkpt lat="48.46374" lon="-4.44921">
        <ele>95.853</ele>
        <time>2011-04-10T06:04:18Z</time>
      </trkpt>
      <trkpt lat="48.46409" lon="-4.44919">
        <ele>96.901</ele>
        <time>2011-04-10T06:04:24Z</time>
      </trkpt>
      <trkpt lat="48.46413" lon="-4.44925">
        <ele>97.039</ele>
        <time>2011-04-10T06:04:27Z</time>
      </trkpt>
      <trkpt lat="48.4646" lon="-4.44933">
        <ele>96.361</ele>
        <time>2011-04-10T06:04:35Z</time>
      </trkpt>
      <trkpt lat="48.46571" lon="-4.44839">
        <ele>95.496</ele>
        <time>2011-04-10T06:04:56Z</time>
      </trkpt>
      <trkpt lat="48.46706" lon="-4.44713">
        <ele>93.872</ele>
        <time>2011-04-10T06:05:21Z</time>
      </trkpt>
      <trkpt lat="48.46797" lon="-4.44603">
        <ele>93.128</ele>
        <time>2011-04-10T06:05:40Z</time>
      </trkpt>
      <trkpt lat="48.46905" lon="-4.44465">
        <ele>93.468</ele>
        <time>2011-04-10T06:06:02Z</time>
      </trkpt>
      <trkpt lat="48.46974" lon="-4.44388">
        <ele>96.623</ele>
        <time>2011-04-10T06:06:19Z</time>
      </trkpt>
      <trkpt lat="48.47077" lon="-4.443">
        <ele>98.721</ele>
        <time>2011-04-10T06:06:43Z</time>
      </trkpt>
      <trkpt lat="48.47191" lon="-4.44212">
        <ele>97.679</ele>
        <time>2011-04-10T06:07:06Z</time>
      </trkpt>
      <trkpt lat="48.47321" lon="-4.44107">
        <ele>98.212</ele>
        <time>2011-04-10T06:07:31Z</time>
      </trkpt>
      <trkpt lat="48.47468" lon="-4.4399">
        <ele>98.257</ele>
        <time>2011-04-10T06:08:01Z</time>
      </trkpt>
      <trkpt lat="48.47588" lon="-4.43912">
        <ele>97.363</ele>
        <time>2011-04-10T06:08:24Z</time>
      </trkpt>
      <trkpt lat="48.47754" lon="-4.43837">
        <ele>94.238</ele>
        <time>2011-04-10T06:08:53Z</time>
      </trkpt>
      <trkpt lat="48.47897" lon="-4.43765">
        <ele>92.305</ele>
        <time>2011-04-10T06:09:18Z</time>
      </trkpt>
      <trkpt lat="48.48024" lon="-4.43709">
        <ele>91.84</ele>
        <time>2011-04-10T06:09:40Z</time>
      </trkpt>
      <trkpt lat="48.48173" lon="-4.43644">
        <ele>92.677</ele>
        <time>2011-04-10T06:10:07Z</time>
      </trkpt>
      <trkpt lat="48.48329" lon="-4.43577">
        <ele>89.246</ele>
        <time>2011-04-10T06:10:34Z</time>
      </trkpt>
      <trkpt lat="48.4849" lon="-4.43508">
        <ele>88.557</ele>
        <time>2011-04-10T06:10:59Z</time>
      </trkpt>
      <trkpt lat="48.48616" lon="-4.43454">
        <ele>91.207</ele>
        <time>2011-04-10T06:11:22Z</time>
      </trkpt>
      <trkpt lat="48.48754" lon="-4.43422">
        <ele>89.156</ele>
        <time>2011-04-10T06:11:45Z</time>
      </trkpt>
      <trkpt lat="48.48836" lon="-4.43414">
        <ele>86.105</ele>
        <time>2011-04-10T06:11:57Z</time>
      </trkpt>
      <trkpt lat="48.48996" lon="-4.43399">
        <ele>83.713</ele>
        <time>2011-04-10T06:12:21Z</time>
      </trkpt>
      <trkpt lat="48.49109" lon="-4.43373">
        <ele>80.197</ele>
        <time>2011-04-10T06:12:38Z</time>
      </trkpt>
      <trkpt lat="48.49232" lon="-4.43318">
        <ele>76.964</ele>
        <time>2011-04-10T06:12:56Z</time>
      </trkpt>
      <trkpt lat="48.49285" lon="-4.43264">
        <ele>75.405</ele>
        <time>2011-04-10T06:13:05Z</time>
      </trkpt>
      <trkpt lat="48.49305" lon="-4.43238">
        <ele>73.929</ele>
        <time>2011-04-10T06:13:10Z</time>
      </trkpt>
      <trkpt lat="48.49322" lon="-4.43208">
        <ele>73.402</ele>
        <time>2011-04-10T06:13:14Z</time>
      </trkpt>
      <trkpt lat="48.49384" lon="-4.43111">
        <ele>70.258</ele>
        <time>2011-04-10T06:13:25Z</time>
      </trkpt>
      <trkpt lat="48.49434" lon="-4.43032">
        <ele>67.978</ele>
        <time>2011-04-10T06:13:34Z</time>
      </trkpt>
      <trkpt lat="48.49528" lon="-4.42926">
        <ele>70.035</ele>
        <time>2011-04-10T06:13:52Z</time>
      </trkpt>
      <trkpt lat="48.49548" lon="-4.42909">
        <ele>71.855</ele>
        <time>2011-04-10T06:13:57Z</time>
      </trkpt>
      <trkpt lat="48.4955" lon="-4.42908">
        <ele>72.734</ele>
        <time>2011-04-10T06:14:01Z</time>
      </trkpt>
      <trkpt lat="48.49588" lon="-4.42878">
        <ele>74.166</ele>
        <time>2011-04-10T06:14:10Z</time>
      </trkpt>
      <trkpt lat="48.49589" lon="-4.42906">
        <ele>73.705</ele>
        <time>2011-04-10T06:14:13Z</time>
      </trkpt>
      <trkpt lat="48.49585" lon="-4.4292">
        <ele>71.424</ele>
        <time>2011-04-10T06:14:16Z</time>
      </trkpt>
      <trkpt lat="48.49614" lon="-4.42954">
        <ele>68.692</ele>
        <time>2011-04-10T06:14:20Z</time>
      </trkpt>
      <trkpt lat="48.49711" lon="-4.42995">
        <ele>68.228</ele>
        <time>2011-04-10T06:14:36Z</time>
      </trkpt>
      <trkpt lat="48.49739" lon="-4.43003">
        <ele>69.277</ele>
        <time>2011-04-10T06:14:41Z</time>
      </trkpt>
      <trkpt lat="48.49776" lon="-4.43021">
        <ele>68.243</ele>
        <time>2011-04-10T06:14:48Z</time>
      </trkpt>
      <trkpt lat="48.4979" lon="-4.43015">
        <ele>69.721</ele>
        <time>2011-04-10T06:14:52Z</time>
      </trkpt>
      <trkpt lat="48.4979" lon="-4.43015">
        <ele>70.346</ele>
        <time>2011-04-10T06:14:53Z</time>
      </trkpt>
      <trkpt lat="48.49799" lon="-4.43024">
        <ele>71.942</ele>
        <time>2011-04-10T06:15:02Z</time>
      </trkpt>
      <trkpt lat="48.49837" lon="-4.43032">
        <ele>72.447</ele>
        <time>2011-04-10T06:15:12Z</time>
      </trkpt>
      <trkpt lat="48.49847" lon="-4.43038">
        <ele>72.501</ele>
        <time>2011-04-10T06:15:22Z</time>
      </trkpt>
    </trkseg>
  </trk>
  <trk>
    <name><![CDATA[ACTIVE LOG081531]]></name>
    <trkseg>
      <trkpt lat="48.49847" lon="-4.43038">
        <ele>72.293</ele>
        <time>2011-04-10T06:15:31Z</time>
      </trkpt>
      <trkpt lat="48.49847" lon="-4.43038">
        <ele>86.517</ele>
        <time>2011-04-10T06:15:32Z</time>
      </trkpt>
      <trkpt lat="48.49847" lon="-4.43038">
        <ele>84.578</ele>
        <time>2011-04-10T06:21:40Z</time>
      </trkpt>
      <trkpt lat="48.49847" lon="-4.43038">
        <ele>82.929</ele>
        <time>2011-04-10T06:21:42Z</time>
      </trkpt>
    </trkseg>
  </trk>
  <trk>
    <name><![CDATA[ACTIVE LOG082223]]></name>
    <trkseg>
      <trkpt lat="48.49847" lon="-4.43038">
        <ele>83.799</ele>
        <time>2011-04-10T06:22:23Z</time>
      </trkpt>
      <trkpt lat="48.49617" lon="-4.42959">
        <ele>83.706</ele>
        <time>2011-04-10T06:22:24Z</time>
      </trkpt>
      <trkpt lat="48.49594" lon="-4.42931">
        <ele>85.585</ele>
        <time>2011-04-10T06:22:34Z</time>
      </trkpt>
      <trkpt lat="48.49558" lon="-4.42918">
        <ele>83.209</ele>
        <time>2011-04-10T06:22:42Z</time>
      </trkpt>
      <trkpt lat="48.49528" lon="-4.42927">
        <ele>80.042</ele>
        <time>2011-04-10T06:22:46Z</time>
      </trkpt>
      <trkpt lat="48.4949" lon="-4.4296">
        <ele>76.342</ele>
        <time>2011-04-10T06:22:52Z</time>
      </trkpt>
      <trkpt lat="48.49462" lon="-4.4299">
        <ele>74.161</ele>
        <time>2011-04-10T06:22:57Z</time>
      </trkpt>
      <trkpt lat="48.49407" lon="-4.43074">
        <ele>70.962</ele>
        <time>2011-04-10T06:23:11Z</time>
      </trkpt>
      <trkpt lat="48.49338" lon="-4.43184">
        <ele>71.677</ele>
        <time>2011-04-10T06:23:32Z</time>
      </trkpt>
      <trkpt lat="48.49332" lon="-4.43193">
        <ele>71.704</ele>
        <time>2011-04-10T06:23:34Z</time>
      </trkpt>
      <trkpt lat="48.49335" lon="-4.43252">
        <ele>71.891</ele>
        <time>2011-04-10T06:23:42Z</time>
      </trkpt>
      <trkpt lat="48.49338" lon="-4.43256">
        <ele>71.623</ele>
        <time>2011-04-10T06:23:43Z</time>
      </trkpt>
      <trkpt lat="48.4939" lon="-4.43321">
        <ele>75.47</ele>
        <time>2011-04-10T06:24:00Z</time>
      </trkpt>
      <trkpt lat="48.494" lon="-4.43337">
        <ele>76.196</ele>
        <time>2011-04-10T06:24:05Z</time>
      </trkpt>
      <trkpt lat="48.49428" lon="-4.43411">
        <ele>77.475</ele>
        <time>2011-04-10T06:24:18Z</time>
      </trkpt>
      <trkpt lat="48.49472" lon="-4.43518">
        <ele>80.6</ele>
        <time>2011-04-10T06:24:40Z</time>
      </trkpt>
      <trkpt lat="48.49495" lon="-4.43634">
        <ele>81.734</ele>
        <time>2011-04-10T06:24:59Z</time>
      </trkpt>
      <trkpt lat="48.4952" lon="-4.43788">
        <ele>79.272</ele>
        <time>2011-04-10T06:25:20Z</time>
      </trkpt>
      <trkpt lat="48.49547" lon="-4.44019">
        <ele>79.809</ele>
        <time>2011-04-10T06:25:45Z</time>
      </trkpt>
      <trkpt lat="48.49565" lon="-4.44189">
        <ele>81.442</ele>
        <time>2011-04-10T06:26:06Z</time>
      </trkpt>
      <trkpt lat="48.49585" lon="-4.44369">
        <ele>79.786</ele>
        <time>2011-04-10T06:26:27Z</time>
      </trkpt>
      <trkpt lat="48.49613" lon="-4.44578">
        <ele>80.517</ele>
        <time>2011-04-10T06:26:52Z</time>
      </trkpt>
      <trkpt lat="48.49615" lon="-4.44777">
        <ele>81.743</ele>
        <time>2011-04-10T06:27:17Z</time>
      </trkpt>
      <trkpt lat="48.49611" lon="-4.44974">
        <ele>79.568</ele>
        <time>2011-04-10T06:27:39Z</time>
      </trkpt>
      <trkpt lat="48.4962" lon="-4.45209">
        <ele>77.682</ele>
        <time>2011-04-10T06:28:05Z</time>
      </trkpt>
      <trkpt lat="48.49625" lon="-4.45329">
        <ele>74.446</ele>
        <time>2011-04-10T06:28:18Z</time>
      </trkpt>
      <trkpt lat="48.49634" lon="-4.45474">
        <ele>71.269</ele>
        <time>2011-04-10T06:28:32Z</time>
      </trkpt>
      <trkpt lat="48.49642" lon="-4.45531">
        <ele>67.965</ele>
        <time>2011-04-10T06:28:37Z</time>
      </trkpt>
      <trkpt lat="48.49653" lon="-4.45616">
        <ele>64.885</ele>
        <time>2011-04-10T06:28:44Z</time>
      </trkpt>
      <trkpt lat="48.49651" lon="-4.45768">
        <ele>65.928</ele>
        <time>2011-04-10T06:28:57Z</time>
      </trkpt>
      <trkpt lat="48.49649" lon="-4.45927">
        <ele>69.404</ele>
        <time>2011-04-10T06:29:16Z</time>
      </trkpt>
      <trkpt lat="48.49632" lon="-4.4606">
        <ele>72.438</ele>
        <time>2011-04-10T06:29:34Z</time>
      </trkpt>
      <trkpt lat="48.49605" lon="-4.46192">
        <ele>74.03</ele>
        <time>2011-04-10T06:29:54Z</time>
      </trkpt>
      <trkpt lat="48.49557" lon="-4.46348">
        <ele>75.624</ele>
        <time>2011-04-10T06:30:19Z</time>
      </trkpt>
      <trkpt lat="48.49516" lon="-4.46519">
        <ele>77.771</ele>
        <time>2011-04-10T06:30:45Z</time>
      </trkpt>
      <trkpt lat="48.49513" lon="-4.46532">
        <ele>77.942</ele>
        <time>2011-04-10T06:30:47Z</time>
      </trkpt>
      <trkpt lat="48.49481" lon="-4.46687">
        <ele>79.935</ele>
        <time>2011-04-10T06:31:11Z</time>
      </trkpt>
      <trkpt lat="48.49466" lon="-4.46754">
        <ele>80.143</ele>
        <time>2011-04-10T06:31:23Z</time>
      </trkpt>
      <trkpt lat="48.49437" lon="-4.4689">
        <ele>83.371</ele>
        <time>2011-04-10T06:31:43Z</time>
      </trkpt>
      <trkpt lat="48.49403" lon="-4.47043">
        <ele>84.351</ele>
        <time>2011-04-10T06:32:05Z</time>
      </trkpt>
      <trkpt lat="48.49356" lon="-4.47237">
        <ele>83.725</ele>
        <time>2011-04-10T06:32:29Z</time>
      </trkpt>
      <trkpt lat="48.49325" lon="-4.47407">
        <ele>80.456</ele>
        <time>2011-04-10T06:32:47Z</time>
      </trkpt>
      <trkpt lat="48.49288" lon="-4.47599">
        <ele>79.469</ele>
        <time>2011-04-10T06:33:06Z</time>
      </trkpt>
      <trkpt lat="48.49245" lon="-4.47823">
        <ele>80.573</ele>
        <time>2011-04-10T06:33:33Z</time>
      </trkpt>
      <trkpt lat="48.49262" lon="-4.47937">
        <ele>78.964</ele>
        <time>2011-04-10T06:33:45Z</time>
      </trkpt>
      <trkpt lat="48.49318" lon="-4.48032">
        <ele>75.853</ele>
        <time>2011-04-10T06:33:57Z</time>
      </trkpt>
      <trkpt lat="48.49384" lon="-4.48164">
        <ele>76.861</ele>
        <time>2011-04-10T06:34:15Z</time>
      </trkpt>
      <trkpt lat="48.49406" lon="-4.48328">
        <ele>78.271</ele>
        <time>2011-04-10T06:34:35Z</time>
      </trkpt>
      <trkpt lat="48.49425" lon="-4.4851">
        <ele>75.872</ele>
        <time>2011-04-10T06:34:56Z</time>
      </trkpt>
      <trkpt lat="48.49428" lon="-4.48519">
        <ele>75.754</ele>
        <time>2011-04-10T06:34:57Z</time>
      </trkpt>
      <trkpt lat="48.49483" lon="-4.48662">
        <ele>74.967</ele>
        <time>2011-04-10T06:35:14Z</time>
      </trkpt>
      <trkpt lat="48.495" lon="-4.48811">
        <ele>77.475</ele>
        <time>2011-04-10T06:35:32Z</time>
      </trkpt>
      <trkpt lat="48.49527" lon="-4.48953">
        <ele>74.212</ele>
        <time>2011-04-10T06:35:48Z</time>
      </trkpt>
      <trkpt lat="48.49551" lon="-4.49073">
        <ele>71.127</ele>
        <time>2011-04-10T06:36:00Z</time>
      </trkpt>
      <trkpt lat="48.49604" lon="-4.49213">
        <ele>68.986</ele>
        <time>2011-04-10T06:36:15Z</time>
      </trkpt>
      <trkpt lat="48.49681" lon="-4.4938">
        <ele>67.861</ele>
        <time>2011-04-10T06:36:36Z</time>
      </trkpt>
      <trkpt lat="48.49729" lon="-4.49588">
        <ele>66.367</ele>
        <time>2011-04-10T06:36:59Z</time>
      </trkpt>
      <trkpt lat="48.4979" lon="-4.49727">
        <ele>65.554</ele>
        <time>2011-04-10T06:37:16Z</time>
      </trkpt>
      <trkpt lat="48.4985" lon="-4.49855">
        <ele>65.975</ele>
        <time>2011-04-10T06:37:33Z</time>
      </trkpt>
      <trkpt lat="48.49855" lon="-4.49885">
        <ele>66.591</ele>
        <time>2011-04-10T06:37:37Z</time>
      </trkpt>
      <trkpt lat="48.49857" lon="-4.499">
        <ele>66.816</ele>
        <time>2011-04-10T06:37:39Z</time>
      </trkpt>
      <trkpt lat="48.49871" lon="-4.50057">
        <ele>68.94</ele>
        <time>2011-04-10T06:37:59Z</time>
      </trkpt>
      <trkpt lat="48.49858" lon="-4.50145">
        <ele>65.795</ele>
        <time>2011-04-10T06:38:09Z</time>
      </trkpt>
      <trkpt lat="48.49835" lon="-4.50209">
        <ele>61.995</ele>
        <time>2011-04-10T06:38:16Z</time>
      </trkpt>
      <trkpt lat="48.49815" lon="-4.50262">
        <ele>58.615</ele>
        <time>2011-04-10T06:38:21Z</time>
      </trkpt>
      <trkpt lat="48.49807" lon="-4.50285">
        <ele>57.795</ele>
        <time>2011-04-10T06:38:23Z</time>
      </trkpt>
      <trkpt lat="48.49776" lon="-4.50356">
        <ele>57.232</ele>
        <time>2011-04-10T06:38:30Z</time>
      </trkpt>
      <trkpt lat="48.49784" lon="-4.50408">
        <ele>57.136</ele>
        <time>2011-04-10T06:38:36Z</time>
      </trkpt>
      <trkpt lat="48.49868" lon="-4.5049">
        <ele>56.456</ele>
        <time>2011-04-10T06:38:52Z</time>
      </trkpt>
      <trkpt lat="48.499" lon="-4.5054">
        <ele>57.13</ele>
        <time>2011-04-10T06:39:00Z</time>
      </trkpt>
      <trkpt lat="48.49895" lon="-4.50573">
        <ele>56.951</ele>
        <time>2011-04-10T06:39:06Z</time>
      </trkpt>
      <trkpt lat="48.49841" lon="-4.50686">
        <ele>58.605</ele>
        <time>2011-04-10T06:39:24Z</time>
      </trkpt>
      <trkpt lat="48.4982" lon="-4.50724">
        <ele>60.035</ele>
        <time>2011-04-10T06:39:31Z</time>
      </trkpt>
      <trkpt lat="48.49767" lon="-4.50839">
        <ele>61.452</ele>
        <time>2011-04-10T06:39:51Z</time>
      </trkpt>
      <trkpt lat="48.49729" lon="-4.50926">
        <ele>60.629</ele>
        <time>2011-04-10T06:40:04Z</time>
      </trkpt>
      <trkpt lat="48.49714" lon="-4.5094">
        <ele>61.875</ele>
        <time>2011-04-10T06:40:08Z</time>
      </trkpt>
      <trkpt lat="48.49662" lon="-4.50959">
        <ele>65.083</ele>
        <time>2011-04-10T06:40:20Z</time>
      </trkpt>
      <trkpt lat="48.49603" lon="-4.50981">
        <ele>68.302</ele>
        <time>2011-04-10T06:40:34Z</time>
      </trkpt>
      <trkpt lat="48.49555" lon="-4.50995">
        <ele>71.112</ele>
        <time>2011-04-10T06:40:45Z</time>
      </trkpt>
      <trkpt lat="48.49446" lon="-4.50986">
        <ele>70.957</ele>
        <time>2011-04-10T06:41:07Z</time>
      </trkpt>
      <trkpt lat="48.49441" lon="-4.50988">
        <ele>70.783</ele>
        <time>2011-04-10T06:41:08Z</time>
      </trkpt>
      <trkpt lat="48.49356" lon="-4.51024">
        <ele>73.752</ele>
        <time>2011-04-10T06:41:25Z</time>
      </trkpt>
      <trkpt lat="48.49246" lon="-4.51074">
        <ele>75.324</ele>
        <time>2011-04-10T06:41:47Z</time>
      </trkpt>
      <trkpt lat="48.49097" lon="-4.51147">
        <ele>72.378</ele>
        <time>2011-04-10T06:42:13Z</time>
      </trkpt>
      <trkpt lat="48.48985" lon="-4.51236">
        <ele>73.008</ele>
        <time>2011-04-10T06:42:33Z</time>
      </trkpt>
      <trkpt lat="48.48836" lon="-4.51324">
        <ele>74.622</ele>
        <time>2011-04-10T06:43:01Z</time>
      </trkpt>
      <trkpt lat="48.48737" lon="-4.51384">
        <ele>77.768</ele>
        <time>2011-04-10T06:43:21Z</time>
      </trkpt>
      <trkpt lat="48.48728" lon="-4.51392">
        <ele>77.909</ele>
        <time>2011-04-10T06:43:23Z</time>
      </trkpt>
      <trkpt lat="48.48718" lon="-4.51416">
        <ele>78.49</ele>
        <time>2011-04-10T06:43:27Z</time>
      </trkpt>
      <trkpt lat="48.48641" lon="-4.51587">
        <ele>78.421</ele>
        <time>2011-04-10T06:43:52Z</time>
      </trkpt>
      <trkpt lat="48.48559" lon="-4.51763">
        <ele>78.108</ele>
        <time>2011-04-10T06:44:16Z</time>
      </trkpt>
      <trkpt lat="48.48481" lon="-4.51897">
        <ele>77.245</ele>
        <time>2011-04-10T06:44:36Z</time>
      </trkpt>
      <trkpt lat="48.48389" lon="-4.51965">
        <ele>78.294</ele>
        <time>2011-04-10T06:44:53Z</time>
      </trkpt>
      <trkpt lat="48.48257" lon="-4.52042">
        <ele>76.922</ele>
        <time>2011-04-10T06:45:16Z</time>
      </trkpt>
      <trkpt lat="48.48239" lon="-4.52053">
        <ele>76.487</ele>
        <time>2011-04-10T06:45:19Z</time>
      </trkpt>
      <trkpt lat="48.48182" lon="-4.52138">
        <ele>73.387</ele>
        <time>2011-04-10T06:45:31Z</time>
      </trkpt>
      <trkpt lat="48.48151" lon="-4.52208">
        <ele>73.203</ele>
        <time>2011-04-10T06:45:39Z</time>
      </trkpt>
      <trkpt lat="48.48113" lon="-4.52248">
        <ele>74.781</ele>
        <time>2011-04-10T06:45:47Z</time>
      </trkpt>
      <trkpt lat="48.47999" lon="-4.52291">
        <ele>73.378</ele>
        <time>2011-04-10T06:46:06Z</time>
      </trkpt>
      <trkpt lat="48.47951" lon="-4.52375">
        <ele>74.476</ele>
        <time>2011-04-10T06:46:18Z</time>
      </trkpt>
      <trkpt lat="48.4792" lon="-4.52448">
        <ele>76.429</ele>
        <time>2011-04-10T06:46:29Z</time>
      </trkpt>
      <trkpt lat="48.47912" lon="-4.52466">
        <ele>76.996</ele>
        <time>2011-04-10T06:46:32Z</time>
      </trkpt>
      <trkpt lat="48.47857" lon="-4.52576">
        <ele>78.797</ele>
        <time>2011-04-10T06:46:51Z</time>
      </trkpt>
      <trkpt lat="48.47774" lon="-4.52731">
        <ele>78.74</ele>
        <time>2011-04-10T06:47:16Z</time>
      </trkpt>
      <trkpt lat="48.47769" lon="-4.5274">
        <ele>78.769</ele>
        <time>2011-04-10T06:47:19Z</time>
      </trkpt>
      <trkpt lat="48.47776" lon="-4.52786">
        <ele>78.719</ele>
        <time>2011-04-10T06:47:26Z</time>
      </trkpt>
      <trkpt lat="48.47806" lon="-4.52785">
        <ele>79.192</ele>
        <time>2011-04-10T06:47:32Z</time>
      </trkpt>
      <trkpt lat="48.47896" lon="-4.52785">
        <ele>81.612</ele>
        <time>2011-04-10T06:47:50Z</time>
      </trkpt>
      <trkpt lat="48.48006" lon="-4.52796">
        <ele>83.609</ele>
        <time>2011-04-10T06:48:12Z</time>
      </trkpt>
      <trkpt lat="48.48138" lon="-4.528">
        <ele>81.687</ele>
        <time>2011-04-10T06:48:36Z</time>
      </trkpt>
      <trkpt lat="48.48292" lon="-4.52825">
        <ele>80.006</ele>
        <time>2011-04-10T06:49:01Z</time>
      </trkpt>
      <trkpt lat="48.48443" lon="-4.52849">
        <ele>79.056</ele>
        <time>2011-04-10T06:49:26Z</time>
      </trkpt>
      <trkpt lat="48.4861" lon="-4.52878">
        <ele>80.498</ele>
        <time>2011-04-10T06:49:54Z</time>
      </trkpt>
      <trkpt lat="48.4877" lon="-4.52911">
        <ele>79.03</ele>
        <time>2011-04-10T06:50:21Z</time>
      </trkpt>
      <trkpt lat="48.48875" lon="-4.52954">
        <ele>75.687</ele>
        <time>2011-04-10T06:50:38Z</time>
      </trkpt>
      <trkpt lat="48.48982" lon="-4.53034">
        <ele>75.704</ele>
        <time>2011-04-10T06:50:56Z</time>
      </trkpt>
      <trkpt lat="48.49111" lon="-4.53159">
        <ele>76.228</ele>
        <time>2011-04-10T06:51:22Z</time>
      </trkpt>
      <trkpt lat="48.49255" lon="-4.5331">
        <ele>76.945</ele>
        <time>2011-04-10T06:51:53Z</time>
      </trkpt>
      <trkpt lat="48.4937" lon="-4.5343">
        <ele>77.924</ele>
        <time>2011-04-10T06:52:18Z</time>
      </trkpt>
      <trkpt lat="48.49506" lon="-4.53552">
        <ele>77.333</ele>
        <time>2011-04-10T06:52:45Z</time>
      </trkpt>
      <trkpt lat="48.49649" lon="-4.53615">
        <ele>76.554</ele>
        <time>2011-04-10T06:53:11Z</time>
      </trkpt>
      <trkpt lat="48.49751" lon="-4.5371">
        <ele>75.723</ele>
        <time>2011-04-10T06:53:30Z</time>
      </trkpt>
      <trkpt lat="48.49881" lon="-4.5388">
        <ele>73.521</ele>
        <time>2011-04-10T06:53:57Z</time>
      </trkpt>
      <trkpt lat="48.50006" lon="-4.54047">
        <ele>71.892</ele>
        <time>2011-04-10T06:54:24Z</time>
      </trkpt>
      <trkpt lat="48.50133" lon="-4.54208">
        <ele>72.156</ele>
        <time>2011-04-10T06:54:52Z</time>
      </trkpt>
      <trkpt lat="48.50285" lon="-4.54389">
        <ele>72.35</ele>
        <time>2011-04-10T06:55:26Z</time>
      </trkpt>
      <trkpt lat="48.5036" lon="-4.54475">
        <ele>69.203</ele>
        <time>2011-04-10T06:55:41Z</time>
      </trkpt>
      <trkpt lat="48.50418" lon="-4.54548">
        <ele>65.612</ele>
        <time>2011-04-10T06:55:52Z</time>
      </trkpt>
      <trkpt lat="48.50423" lon="-4.54555">
        <ele>65.322</ele>
        <time>2011-04-10T06:55:53Z</time>
      </trkpt>
      <trkpt lat="48.50466" lon="-4.54609">
        <ele>61.778</ele>
        <time>2011-04-10T06:56:00Z</time>
      </trkpt>
      <trkpt lat="48.50522" lon="-4.54679">
        <ele>58.335</ele>
        <time>2011-04-10T06:56:09Z</time>
      </trkpt>
      <trkpt lat="48.50554" lon="-4.54721">
        <ele>56.039</ele>
        <time>2011-04-10T06:56:14Z</time>
      </trkpt>
      <trkpt lat="48.50572" lon="-4.54747">
        <ele>54.696</ele>
        <time>2011-04-10T06:56:17Z</time>
      </trkpt>
      <trkpt lat="48.50672" lon="-4.54885">
        <ele>51.706</ele>
        <time>2011-04-10T06:56:34Z</time>
      </trkpt>
      <trkpt lat="48.50786" lon="-4.55064">
        <ele>51.217</ele>
        <time>2011-04-10T06:56:58Z</time>
      </trkpt>
      <trkpt lat="48.50849" lon="-4.55162">
        <ele>54.262</ele>
        <time>2011-04-10T06:57:15Z</time>
      </trkpt>
      <trkpt lat="48.50964" lon="-4.5532">
        <ele>55.545</ele>
        <time>2011-04-10T06:57:44Z</time>
      </trkpt>
      <trkpt lat="48.51098" lon="-4.55505">
        <ele>53.181</ele>
        <time>2011-04-10T06:58:14Z</time>
      </trkpt>
      <trkpt lat="48.51197" lon="-4.55614">
        <ele>54.742</ele>
        <time>2011-04-10T06:58:36Z</time>
      </trkpt>
      <trkpt lat="48.51282" lon="-4.55695">
        <ele>56.606</ele>
        <time>2011-04-10T06:58:56Z</time>
      </trkpt>
      <trkpt lat="48.51374" lon="-4.55825">
        <ele>57.683</ele>
        <time>2011-04-10T06:59:21Z</time>
      </trkpt>
      <trkpt lat="48.5144" lon="-4.55999">
        <ele>57.841</ele>
        <time>2011-04-10T06:59:46Z</time>
      </trkpt>
      <trkpt lat="48.51446" lon="-4.56022">
        <ele>56.474</ele>
        <time>2011-04-10T06:59:49Z</time>
      </trkpt>
      <trkpt lat="48.51474" lon="-4.56122">
        <ele>57.285</ele>
        <time>2011-04-10T07:00:05Z</time>
      </trkpt>
      <trkpt lat="48.51474" lon="-4.56122">
        <ele>57.368</ele>
        <time>2011-04-10T07:00:30Z</time>
      </trkpt>
      <trkpt lat="48.51474" lon="-4.56122">
        <ele>57.581</ele>
        <time>2011-04-10T07:01:00Z</time>
      </trkpt>
      <trkpt lat="48.51474" lon="-4.56122">
        <ele>57.433</ele>
        <time>2011-04-10T07:01:06Z</time>
      </trkpt>
      <trkpt lat="48.51477" lon="-4.56131">
        <ele>57.258</ele>
        <time>2011-04-10T07:01:10Z</time>
      </trkpt>
      <trkpt lat="48.51482" lon="-4.56148">
        <ele>55.934</ele>
        <time>2011-04-10T07:01:14Z</time>
      </trkpt>
      <trkpt lat="48.51521" lon="-4.56296">
        <ele>54.048</ele>
        <time>2011-04-10T07:01:33Z</time>
      </trkpt>
      <trkpt lat="48.51576" lon="-4.56501">
        <ele>52.534</ele>
        <time>2011-04-10T07:01:57Z</time>
      </trkpt>
      <trkpt lat="48.51627" lon="-4.56689">
        <ele>49.112</ele>
        <time>2011-04-10T07:02:18Z</time>
      </trkpt>
      <trkpt lat="48.51668" lon="-4.56861">
        <ele>46.003</ele>
        <time>2011-04-10T07:02:36Z</time>
      </trkpt>
      <trkpt lat="48.51733" lon="-4.57137">
        <ele>44.427</ele>
        <time>2011-04-10T07:03:04Z</time>
      </trkpt>
      <trkpt lat="48.51768" lon="-4.57276">
        <ele>47.54</ele>
        <time>2011-04-10T07:03:21Z</time>
      </trkpt>
      <trkpt lat="48.51807" lon="-4.57376">
        <ele>50.627</ele>
        <time>2011-04-10T07:03:36Z</time>
      </trkpt>
      <trkpt lat="48.51879" lon="-4.57507">
        <ele>53.778</ele>
        <time>2011-04-10T07:03:58Z</time>
      </trkpt>
      <trkpt lat="48.51972" lon="-4.5765">
        <ele>55.969</ele>
        <time>2011-04-10T07:04:24Z</time>
      </trkpt>
      <trkpt lat="48.52049" lon="-4.57805">
        <ele>53.671</ele>
        <time>2011-04-10T07:04:47Z</time>
      </trkpt>
      <trkpt lat="48.52059" lon="-4.57914">
        <ele>50.51</ele>
        <time>2011-04-10T07:04:58Z</time>
      </trkpt>
      <trkpt lat="48.52058" lon="-4.57937">
        <ele>49.564</ele>
        <time>2011-04-10T07:05:00Z</time>
      </trkpt>
      <trkpt lat="48.52056" lon="-4.58022">
        <ele>47.071</ele>
        <time>2011-04-10T07:05:07Z</time>
      </trkpt>
      <trkpt lat="48.5204" lon="-4.58235">
        <ele>43.015</ele>
        <time>2011-04-10T07:05:26Z</time>
      </trkpt>
      <trkpt lat="48.52052" lon="-4.58299">
        <ele>39.845</ele>
        <time>2011-04-10T07:05:31Z</time>
      </trkpt>
      <trkpt lat="48.52072" lon="-4.58349">
        <ele>36.456</ele>
        <time>2011-04-10T07:05:35Z</time>
      </trkpt>
      <trkpt lat="48.52141" lon="-4.58533">
        <ele>34.91</ele>
        <time>2011-04-10T07:05:51Z</time>
      </trkpt>
      <trkpt lat="48.52211" lon="-4.58752">
        <ele>33.525</ele>
        <time>2011-04-10T07:06:12Z</time>
      </trkpt>
      <trkpt lat="48.5224" lon="-4.58878">
        <ele>31.594</ele>
        <time>2011-04-10T07:06:24Z</time>
      </trkpt>
      <trkpt lat="48.52241" lon="-4.58881">
        <ele>31.525</ele>
        <time>2011-04-10T07:06:25Z</time>
      </trkpt>
      <trkpt lat="48.52232" lon="-4.58977">
        <ele>30.588</ele>
        <time>2011-04-10T07:06:33Z</time>
      </trkpt>
      <trkpt lat="48.52207" lon="-4.59022">
        <ele>30.384</ele>
        <time>2011-04-10T07:06:38Z</time>
      </trkpt>
      <trkpt lat="48.52122" lon="-4.59103">
        <ele>27.209</ele>
        <time>2011-04-10T07:06:51Z</time>
      </trkpt>
      <trkpt lat="48.5209" lon="-4.59138">
        <ele>25.109</ele>
        <time>2011-04-10T07:06:56Z</time>
      </trkpt>
      <trkpt lat="48.5203" lon="-4.59205">
        <ele>21.531</ele>
        <time>2011-04-10T07:07:05Z</time>
      </trkpt>
      <trkpt lat="48.52015" lon="-4.59238">
        <ele>19.627</ele>
        <time>2011-04-10T07:07:08Z</time>
      </trkpt>
      <trkpt lat="48.52027" lon="-4.59309">
        <ele>20.445</ele>
        <time>2011-04-10T07:07:14Z</time>
      </trkpt>
      <trkpt lat="48.52068" lon="-4.59331">
        <ele>23.358</ele>
        <time>2011-04-10T07:07:21Z</time>
      </trkpt>
      <trkpt lat="48.52128" lon="-4.59319">
        <ele>26.728</ele>
        <time>2011-04-10T07:07:33Z</time>
      </trkpt>
      <trkpt lat="48.52145" lon="-4.59315">
        <ele>28.215</ele>
        <time>2011-04-10T07:07:37Z</time>
      </trkpt>
      <trkpt lat="48.52203" lon="-4.5931">
        <ele>31.264</ele>
        <time>2011-04-10T07:07:51Z</time>
      </trkpt>
      <trkpt lat="48.52232" lon="-4.5931">
        <ele>33.978</ele>
        <time>2011-04-10T07:08:02Z</time>
      </trkpt>
      <trkpt lat="48.52305" lon="-4.59315">
        <ele>36.967</ele>
        <time>2011-04-10T07:08:16Z</time>
      </trkpt>
      <trkpt lat="48.52329" lon="-4.59358">
        <ele>39.346</ele>
        <time>2011-04-10T07:08:29Z</time>
      </trkpt>
      <trkpt lat="48.52332" lon="-4.59365">
        <ele>40.306</ele>
        <time>2011-04-10T07:08:44Z</time>
      </trkpt>
      <trkpt lat="48.52343" lon="-4.59395">
        <ele>40.996</ele>
        <time>2011-04-10T07:09:17Z</time>
      </trkpt>
      <trkpt lat="48.52368" lon="-4.59486">
        <ele>42.821</ele>
        <time>2011-04-10T07:09:34Z</time>
      </trkpt>
      <trkpt lat="48.52387" lon="-4.59597">
        <ele>45.948</ele>
        <time>2011-04-10T07:09:52Z</time>
      </trkpt>
      <trkpt lat="48.52402" lon="-4.59669">
        <ele>49.079</ele>
        <time>2011-04-10T07:10:05Z</time>
      </trkpt>
      <trkpt lat="48.52431" lon="-4.59738">
        <ele>52.226</ele>
        <time>2011-04-10T07:10:19Z</time>
      </trkpt>
      <trkpt lat="48.52468" lon="-4.59818">
        <ele>55.364</ele>
        <time>2011-04-10T07:10:36Z</time>
      </trkpt>
      <trkpt lat="48.52475" lon="-4.59889">
        <ele>57.071</ele>
        <time>2011-04-10T07:10:49Z</time>
      </trkpt>
      <trkpt lat="48.52459" lon="-4.60014">
        <ele>58.458</ele>
        <time>2011-04-10T07:11:12Z</time>
      </trkpt>
      <trkpt lat="48.52469" lon="-4.6015">
        <ele>60.229</ele>
        <time>2011-04-10T07:11:28Z</time>
      </trkpt>
      <trkpt lat="48.52485" lon="-4.60207">
        <ele>60.883</ele>
        <time>2011-04-10T07:11:36Z</time>
      </trkpt>
      <trkpt lat="48.52496" lon="-4.60306">
        <ele>58.58</ele>
        <time>2011-04-10T07:11:48Z</time>
      </trkpt>
      <trkpt lat="48.52514" lon="-4.60432">
        <ele>60.299</ele>
        <time>2011-04-10T07:12:02Z</time>
      </trkpt>
      <trkpt lat="48.52556" lon="-4.60564">
        <ele>63.155</ele>
        <time>2011-04-10T07:12:22Z</time>
      </trkpt>
      <trkpt lat="48.52609" lon="-4.60742">
        <ele>65.051</ele>
        <time>2011-04-10T07:12:47Z</time>
      </trkpt>
      <trkpt lat="48.52651" lon="-4.60935">
        <ele>66.605</ele>
        <time>2011-04-10T07:13:11Z</time>
      </trkpt>
      <trkpt lat="48.52693" lon="-4.6119">
        <ele>67.601</ele>
        <time>2011-04-10T07:13:41Z</time>
      </trkpt>
      <trkpt lat="48.52743" lon="-4.61366">
        <ele>67.013</ele>
        <time>2011-04-10T07:14:03Z</time>
      </trkpt>
      <trkpt lat="48.5286" lon="-4.61675">
        <ele>66.082</ele>
        <time>2011-04-10T07:14:36Z</time>
      </trkpt>
      <trkpt lat="48.52971" lon="-4.61954">
        <ele>63.004</ele>
        <time>2011-04-10T07:15:06Z</time>
      </trkpt>
      <trkpt lat="48.53089" lon="-4.62207">
        <ele>62.599</ele>
        <time>2011-04-10T07:15:35Z</time>
      </trkpt>
      <trkpt lat="48.53145" lon="-4.62445">
        <ele>62.172</ele>
        <time>2011-04-10T07:15:58Z</time>
      </trkpt>
      <trkpt lat="48.5317" lon="-4.62734">
        <ele>60.196</ele>
        <time>2011-04-10T07:16:24Z</time>
      </trkpt>
      <trkpt lat="48.53192" lon="-4.62909">
        <ele>59.326</ele>
        <time>2011-04-10T07:16:40Z</time>
      </trkpt>
      <trkpt lat="48.53262" lon="-4.63116">
        <ele>61.63</ele>
        <time>2011-04-10T07:17:02Z</time>
      </trkpt>
      <trkpt lat="48.533" lon="-4.63313">
        <ele>60.651</ele>
        <time>2011-04-10T07:17:22Z</time>
      </trkpt>
      <trkpt lat="48.53343" lon="-4.63529">
        <ele>58.346</ele>
        <time>2011-04-10T07:17:43Z</time>
      </trkpt>
      <trkpt lat="48.53433" lon="-4.63746">
        <ele>57.528</ele>
        <time>2011-04-10T07:18:08Z</time>
      </trkpt>
      <trkpt lat="48.53503" lon="-4.63841">
        <ele>54.428</ele>
        <time>2011-04-10T07:18:21Z</time>
      </trkpt>
      <trkpt lat="48.53617" lon="-4.63907">
        <ele>51.585</ele>
        <time>2011-04-10T07:18:37Z</time>
      </trkpt>
      <trkpt lat="48.53752" lon="-4.64006">
        <ele>48.857</ele>
        <time>2011-04-10T07:18:58Z</time>
      </trkpt>
      <trkpt lat="48.5381" lon="-4.64145">
        <ele>46.958</ele>
        <time>2011-04-10T07:19:13Z</time>
      </trkpt>
      <trkpt lat="48.53859" lon="-4.64331">
        <ele>44.648</ele>
        <time>2011-04-10T07:19:33Z</time>
      </trkpt>
      <trkpt lat="48.53858" lon="-4.64526">
        <ele>46.825</ele>
        <time>2011-04-10T07:19:51Z</time>
      </trkpt>
      <trkpt lat="48.5385" lon="-4.64656">
        <ele>50.136</ele>
        <time>2011-04-10T07:20:06Z</time>
      </trkpt>
      <trkpt lat="48.53841" lon="-4.64778">
        <ele>53.28</ele>
        <time>2011-04-10T07:20:19Z</time>
      </trkpt>
      <trkpt lat="48.53841" lon="-4.64778">
        <ele>53.157</ele>
        <time>2011-04-10T07:20:20Z</time>
      </trkpt>
      <trkpt lat="48.53841" lon="-4.64816">
        <ele>54.285</ele>
        <time>2011-04-10T07:20:26Z</time>
      </trkpt>
      <trkpt lat="48.53841" lon="-4.64861">
        <ele>54.161</ele>
        <time>2011-04-10T07:20:28Z</time>
      </trkpt>
      <trkpt lat="48.53861" lon="-4.65002">
        <ele>51.956</ele>
        <time>2011-04-10T07:20:45Z</time>
      </trkpt>
      <trkpt lat="48.53895" lon="-4.65146">
        <ele>49.818</ele>
        <time>2011-04-10T07:21:02Z</time>
      </trkpt>
      <trkpt lat="48.53897" lon="-4.65155">
        <ele>50.217</ele>
        <time>2011-04-10T07:21:05Z</time>
      </trkpt>
      <trkpt lat="48.53929" lon="-4.65308">
        <ele>46.714</ele>
        <time>2011-04-10T07:21:21Z</time>
      </trkpt>
      <trkpt lat="48.53945" lon="-4.65383">
        <ele>45.614</ele>
        <time>2011-04-10T07:21:29Z</time>
      </trkpt>
      <trkpt lat="48.5399" lon="-4.65492">
        <ele>45.765</ele>
        <time>2011-04-10T07:21:44Z</time>
      </trkpt>
      <trkpt lat="48.54091" lon="-4.65619">
        <ele>47.702</ele>
        <time>2011-04-10T07:22:08Z</time>
      </trkpt>
      <trkpt lat="48.54122" lon="-4.65672">
        <ele>48.798</ele>
        <time>2011-04-10T07:22:17Z</time>
      </trkpt>
      <trkpt lat="48.54136" lon="-4.65686">
        <ele>49.616</ele>
        <time>2011-04-10T07:22:22Z</time>
      </trkpt>
      <trkpt lat="48.54143" lon="-4.65679">
        <ele>49.37</ele>
        <time>2011-04-10T07:22:24Z</time>
      </trkpt>
      <trkpt lat="48.54151" lon="-4.65676">
        <ele>49.544</ele>
        <time>2011-04-10T07:22:26Z</time>
      </trkpt>
      <trkpt lat="48.54169" lon="-4.65671">
        <ele>50.024</ele>
        <time>2011-04-10T07:22:30Z</time>
      </trkpt>
      <trkpt lat="48.54213" lon="-4.65678">
        <ele>50.206</ele>
        <time>2011-04-10T07:22:39Z</time>
      </trkpt>
      <trkpt lat="48.54227" lon="-4.65685">
        <ele>50.061</ele>
        <time>2011-04-10T07:22:42Z</time>
      </trkpt>
      <trkpt lat="48.54246" lon="-4.65673">
        <ele>49.454</ele>
        <time>2011-04-10T07:22:46Z</time>
      </trkpt>
      <trkpt lat="48.54317" lon="-4.65588">
        <ele>46.112</ele>
        <time>2011-04-10T07:23:01Z</time>
      </trkpt>
      <trkpt lat="48.54322" lon="-4.6558">
        <ele>43.921</ele>
        <time>2011-04-10T07:23:04Z</time>
      </trkpt>
      <trkpt lat="48.54348" lon="-4.65538">
        <ele>41.939</ele>
        <time>2011-04-10T07:23:07Z</time>
      </trkpt>
      <trkpt lat="48.54416" lon="-4.65477">
        <ele>39.114</ele>
        <time>2011-04-10T07:23:18Z</time>
      </trkpt>
      <trkpt lat="48.54434" lon="-4.65451">
        <ele>39.089</ele>
        <time>2011-04-10T07:23:21Z</time>
      </trkpt>
      <trkpt lat="48.5447" lon="-4.65308">
        <ele>41.474</ele>
        <time>2011-04-10T07:23:35Z</time>
      </trkpt>
      <trkpt lat="48.54469" lon="-4.65155">
        <ele>42.606</ele>
        <time>2011-04-10T07:23:52Z</time>
      </trkpt>
      <trkpt lat="48.54454" lon="-4.64963">
        <ele>45.165</ele>
        <time>2011-04-10T07:24:14Z</time>
      </trkpt>
      <trkpt lat="48.54468" lon="-4.64839">
        <ele>48.942</ele>
        <time>2011-04-10T07:24:30Z</time>
      </trkpt>
      <trkpt lat="48.54501" lon="-4.64657">
        <ele>50.622</ele>
        <time>2011-04-10T07:24:54Z</time>
      </trkpt>
      <trkpt lat="48.54512" lon="-4.64502">
        <ele>51.954</ele>
        <time>2011-04-10T07:25:13Z</time>
      </trkpt>
      <trkpt lat="48.54521" lon="-4.64356">
        <ele>52.27</ele>
        <time>2011-04-10T07:25:31Z</time>
      </trkpt>
      <trkpt lat="48.54543" lon="-4.641">
        <ele>52.28</ele>
        <time>2011-04-10T07:26:01Z</time>
      </trkpt>
      <trkpt lat="48.54598" lon="-4.63854">
        <ele>49</ele>
        <time>2011-04-10T07:26:28Z</time>
      </trkpt>
      <trkpt lat="48.54616" lon="-4.63778">
        <ele>47.276</ele>
        <time>2011-04-10T07:26:36Z</time>
      </trkpt>
      <trkpt lat="48.54662" lon="-4.63574">
        <ele>44.677</ele>
        <time>2011-04-10T07:26:56Z</time>
      </trkpt>
      <trkpt lat="48.54693" lon="-4.63438">
        <ele>47.687</ele>
        <time>2011-04-10T07:27:11Z</time>
      </trkpt>
      <trkpt lat="48.54729" lon="-4.63277">
        <ele>49.834</ele>
        <time>2011-04-10T07:27:30Z</time>
      </trkpt>
      <trkpt lat="48.54764" lon="-4.63119">
        <ele>46.726</ele>
        <time>2011-04-10T07:27:47Z</time>
      </trkpt>
      <trkpt lat="48.5482" lon="-4.62866">
        <ele>46.601</ele>
        <time>2011-04-10T07:28:13Z</time>
      </trkpt>
      <trkpt lat="48.54849" lon="-4.62731">
        <ele>49.834</ele>
        <time>2011-04-10T07:28:29Z</time>
      </trkpt>
      <trkpt lat="48.54889" lon="-4.62549">
        <ele>46.59</ele>
        <time>2011-04-10T07:28:49Z</time>
      </trkpt>
      <trkpt lat="48.54958" lon="-4.62238">
        <ele>45.492</ele>
        <time>2011-04-10T07:29:22Z</time>
      </trkpt>
      <trkpt lat="48.54999" lon="-4.62053">
        <ele>48.513</ele>
        <time>2011-04-10T07:29:43Z</time>
      </trkpt>
      <trkpt lat="48.55047" lon="-4.61832">
        <ele>49.481</ele>
        <time>2011-04-10T07:30:10Z</time>
      </trkpt>
      <trkpt lat="48.55049" lon="-4.61823">
        <ele>49.642</ele>
        <time>2011-04-10T07:30:11Z</time>
      </trkpt>
      <trkpt lat="48.55064" lon="-4.61763">
        <ele>48.528</ele>
        <time>2011-04-10T07:30:18Z</time>
      </trkpt>
      <trkpt lat="48.55082" lon="-4.61629">
        <ele>47.728</ele>
        <time>2011-04-10T07:30:33Z</time>
      </trkpt>
      <trkpt lat="48.55082" lon="-4.61606">
        <ele>48.861</ele>
        <time>2011-04-10T07:30:41Z</time>
      </trkpt>
      <trkpt lat="48.55082" lon="-4.61606">
        <ele>48.722</ele>
        <time>2011-04-10T07:31:20Z</time>
      </trkpt>
      <trkpt lat="48.55082" lon="-4.61606">
        <ele>48.618</ele>
        <time>2011-04-10T07:31:35Z</time>
      </trkpt>
      <trkpt lat="48.55083" lon="-4.61586">
        <ele>48.03</ele>
        <time>2011-04-10T07:31:41Z</time>
      </trkpt>
      <trkpt lat="48.55088" lon="-4.61441">
        <ele>47.624</ele>
        <time>2011-04-10T07:31:58Z</time>
      </trkpt>
      <trkpt lat="48.55098" lon="-4.61137">
        <ele>45.301</ele>
        <time>2011-04-10T07:32:27Z</time>
      </trkpt>
      <trkpt lat="48.55102" lon="-4.61014">
        <ele>42.084</ele>
        <time>2011-04-10T07:32:38Z</time>
      </trkpt>
      <trkpt lat="48.55125" lon="-4.60864">
        <ele>38.772</ele>
        <time>2011-04-10T07:32:51Z</time>
      </trkpt>
      <trkpt lat="48.55129" lon="-4.6084">
        <ele>37.64</ele>
        <time>2011-04-10T07:32:53Z</time>
      </trkpt>
      <trkpt lat="48.5514" lon="-4.60777">
        <ele>35.061</ele>
        <time>2011-04-10T07:32:58Z</time>
      </trkpt>
      <trkpt lat="48.55152" lon="-4.60698">
        <ele>31.584</ele>
        <time>2011-04-10T07:33:04Z</time>
      </trkpt>
      <trkpt lat="48.5516" lon="-4.60626">
        <ele>28.266</ele>
        <time>2011-04-10T07:33:09Z</time>
      </trkpt>
      <trkpt lat="48.55165" lon="-4.6058">
        <ele>26.049</ele>
        <time>2011-04-10T07:33:12Z</time>
      </trkpt>
      <trkpt lat="48.55174" lon="-4.605">
        <ele>22.788</ele>
        <time>2011-04-10T07:33:17Z</time>
      </trkpt>
      <trkpt lat="48.55181" lon="-4.60434">
        <ele>19.745</ele>
        <time>2011-04-10T07:33:21Z</time>
      </trkpt>
      <trkpt lat="48.55185" lon="-4.60383">
        <ele>17.905</ele>
        <time>2011-04-10T07:33:24Z</time>
      </trkpt>
      <trkpt lat="48.55196" lon="-4.60216">
        <ele>21.342</ele>
        <time>2011-04-10T07:33:35Z</time>
      </trkpt>
      <trkpt lat="48.55194" lon="-4.60166">
        <ele>23.845</ele>
        <time>2011-04-10T07:33:40Z</time>
      </trkpt>
      <trkpt lat="48.55193" lon="-4.60139">
        <ele>24.945</ele>
        <time>2011-04-10T07:33:43Z</time>
      </trkpt>
      <trkpt lat="48.55233" lon="-4.60025">
        <ele>25.783</ele>
        <time>2011-04-10T07:33:57Z</time>
      </trkpt>
      <trkpt lat="48.55268" lon="-4.59956">
        <ele>22.32</ele>
        <time>2011-04-10T07:34:05Z</time>
      </trkpt>
      <trkpt lat="48.55277" lon="-4.59937">
        <ele>21.633</ele>
        <time>2011-04-10T07:34:07Z</time>
      </trkpt>
      <trkpt lat="48.55297" lon="-4.59881">
        <ele>17.922</ele>
        <time>2011-04-10T07:34:12Z</time>
      </trkpt>
      <trkpt lat="48.55309" lon="-4.59824">
        <ele>13.277</ele>
        <time>2011-04-10T07:34:16Z</time>
      </trkpt>
      <trkpt lat="48.55313" lon="-4.59774">
        <ele>9.233</ele>
        <time>2011-04-10T07:34:20Z</time>
      </trkpt>
      <trkpt lat="48.55318" lon="-4.59698">
        <ele>5.36</ele>
        <time>2011-04-10T07:34:23Z</time>
      </trkpt>
      <trkpt lat="48.55323" lon="-4.5962">
        <ele>1.227</ele>
        <time>2011-04-10T07:34:27Z</time>
      </trkpt>
      <trkpt lat="48.55332" lon="-4.5949">
        <ele>-2.053</ele>
        <time>2011-04-10T07:34:34Z</time>
      </trkpt>
      <trkpt lat="48.55336" lon="-4.59446">
        <ele>-0.646</ele>
        <time>2011-04-10T07:34:37Z</time>
      </trkpt>
      <trkpt lat="48.55341" lon="-4.59435">
        <ele>0.153</ele>
        <time>2011-04-10T07:34:38Z</time>
      </trkpt>
      <trkpt lat="48.55353" lon="-4.59402">
        <ele>1.476</ele>
        <time>2011-04-10T07:34:41Z</time>
      </trkpt>
      <trkpt lat="48.55385" lon="-4.5927">
        <ele>4.328</ele>
        <time>2011-04-10T07:34:55Z</time>
      </trkpt>
      <trkpt lat="48.5542" lon="-4.59156">
        <ele>5.017</ele>
        <time>2011-04-10T07:35:09Z</time>
      </trkpt>
      <trkpt lat="48.55478" lon="-4.58986">
        <ele>7.242</ele>
        <time>2011-04-10T07:35:31Z</time>
      </trkpt>
      <trkpt lat="48.55534" lon="-4.5884">
        <ele>8.437</ele>
        <time>2011-04-10T07:35:50Z</time>
      </trkpt>
      <trkpt lat="48.55586" lon="-4.58687">
        <ele>8.644</ele>
        <time>2011-04-10T07:36:10Z</time>
      </trkpt>
      <trkpt lat="48.55627" lon="-4.58532">
        <ele>6.178</ele>
        <time>2011-04-10T07:36:27Z</time>
      </trkpt>
      <trkpt lat="48.55622" lon="-4.58482">
        <ele>5.343</ele>
        <time>2011-04-10T07:36:32Z</time>
      </trkpt>
      <trkpt lat="48.55575" lon="-4.58361">
        <ele>4.626</ele>
        <time>2011-04-10T07:36:46Z</time>
      </trkpt>
      <trkpt lat="48.55534" lon="-4.58216">
        <ele>5.42</ele>
        <time>2011-04-10T07:37:03Z</time>
      </trkpt>
      <trkpt lat="48.55519" lon="-4.58079">
        <ele>2.345</ele>
        <time>2011-04-10T07:37:17Z</time>
      </trkpt>
      <trkpt lat="48.55515" lon="-4.58026">
        <ele>0.015</ele>
        <time>2011-04-10T07:37:21Z</time>
      </trkpt>
      <trkpt lat="48.55518" lon="-4.5787">
        <ele>2.695</ele>
        <time>2011-04-10T07:37:35Z</time>
      </trkpt>
      <trkpt lat="48.55518" lon="-4.57773">
        <ele>6.07</ele>
        <time>2011-04-10T07:37:47Z</time>
      </trkpt>
      <trkpt lat="48.55505" lon="-4.57698">
        <ele>9.511</ele>
        <time>2011-04-10T07:37:59Z</time>
      </trkpt>
      <trkpt lat="48.55488" lon="-4.57629">
        <ele>12.52</ele>
        <time>2011-04-10T07:38:11Z</time>
      </trkpt>
      <trkpt lat="48.55468" lon="-4.57551">
        <ele>15.608</ele>
        <time>2011-04-10T07:38:25Z</time>
      </trkpt>
      <trkpt lat="48.55451" lon="-4.57475">
        <ele>18.633</ele>
        <time>2011-04-10T07:38:39Z</time>
      </trkpt>
      <trkpt lat="48.55449" lon="-4.57383">
        <ele>21.636</ele>
        <time>2011-04-10T07:38:54Z</time>
      </trkpt>
      <trkpt lat="48.55453" lon="-4.57312">
        <ele>24.831</ele>
        <time>2011-04-10T07:39:07Z</time>
      </trkpt>
      <trkpt lat="48.55457" lon="-4.5724">
        <ele>27.979</ele>
        <time>2011-04-10T07:39:20Z</time>
      </trkpt>
      <trkpt lat="48.55461" lon="-4.57182">
        <ele>31.03</ele>
        <time>2011-04-10T07:39:31Z</time>
      </trkpt>
      <trkpt lat="48.55465" lon="-4.57118">
        <ele>34.214</ele>
        <time>2011-04-10T07:39:42Z</time>
      </trkpt>
      <trkpt lat="48.55485" lon="-4.57029">
        <ele>35.152</ele>
        <time>2011-04-10T07:39:57Z</time>
      </trkpt>
      <trkpt lat="48.55514" lon="-4.56967">
        <ele>35.666</ele>
        <time>2011-04-10T07:40:07Z</time>
      </trkpt>
      <trkpt lat="48.55525" lon="-4.56931">
        <ele>35.592</ele>
        <time>2011-04-10T07:40:12Z</time>
      </trkpt>
      <trkpt lat="48.55537" lon="-4.56747">
        <ele>39.273</ele>
        <time>2011-04-10T07:40:35Z</time>
      </trkpt>
      <trkpt lat="48.55526" lon="-4.56607">
        <ele>39.062</ele>
        <time>2011-04-10T07:40:54Z</time>
      </trkpt>
      <trkpt lat="48.55526" lon="-4.56464">
        <ele>41.37</ele>
        <time>2011-04-10T07:41:12Z</time>
      </trkpt>
      <trkpt lat="48.55496" lon="-4.56319">
        <ele>40.481</ele>
        <time>2011-04-10T07:41:29Z</time>
      </trkpt>
      <trkpt lat="48.55462" lon="-4.56159">
        <ele>41.345</ele>
        <time>2011-04-10T07:41:47Z</time>
      </trkpt>
      <trkpt lat="48.55439" lon="-4.55962">
        <ele>43.087</ele>
        <time>2011-04-10T07:42:09Z</time>
      </trkpt>
      <trkpt lat="48.55376" lon="-4.55851">
        <ele>41.3</ele>
        <time>2011-04-10T07:42:24Z</time>
      </trkpt>
      <trkpt lat="48.5536" lon="-4.5581">
        <ele>41.764</ele>
        <time>2011-04-10T07:42:29Z</time>
      </trkpt>
      <trkpt lat="48.55353" lon="-4.55755">
        <ele>42.604</ele>
        <time>2011-04-10T07:42:35Z</time>
      </trkpt>
      <trkpt lat="48.55352" lon="-4.55744">
        <ele>42.695</ele>
        <time>2011-04-10T07:42:38Z</time>
      </trkpt>
      <trkpt lat="48.55395" lon="-4.55597">
        <ele>42.189</ele>
        <time>2011-04-10T07:42:54Z</time>
      </trkpt>
      <trkpt lat="48.55395" lon="-4.55555">
        <ele>41.115</ele>
        <time>2011-04-10T07:42:58Z</time>
      </trkpt>
      <trkpt lat="48.55355" lon="-4.55406">
        <ele>37.461</ele>
        <time>2011-04-10T07:43:12Z</time>
      </trkpt>
      <trkpt lat="48.55305" lon="-4.55273">
        <ele>34.15</ele>
        <time>2011-04-10T07:43:24Z</time>
      </trkpt>
      <trkpt lat="48.55304" lon="-4.55156">
        <ele>30.79</ele>
        <time>2011-04-10T07:43:33Z</time>
      </trkpt>
      <trkpt lat="48.55307" lon="-4.551">
        <ele>27.667</ele>
        <time>2011-04-10T07:43:37Z</time>
      </trkpt>
      <trkpt lat="48.55312" lon="-4.55024">
        <ele>24.552</ele>
        <time>2011-04-10T07:43:42Z</time>
      </trkpt>
      <trkpt lat="48.55315" lon="-4.54975">
        <ele>22.822</ele>
        <time>2011-04-10T07:43:45Z</time>
      </trkpt>
      <trkpt lat="48.55318" lon="-4.54891">
        <ele>19.186</ele>
        <time>2011-04-10T07:43:50Z</time>
      </trkpt>
      <trkpt lat="48.5532" lon="-4.54823">
        <ele>17.216</ele>
        <time>2011-04-10T07:43:54Z</time>
      </trkpt>
      <trkpt lat="48.55324" lon="-4.5471">
        <ele>21.015</ele>
        <time>2011-04-10T07:44:02Z</time>
      </trkpt>
      <trkpt lat="48.55326" lon="-4.54662">
        <ele>23.748</ele>
        <time>2011-04-10T07:44:07Z</time>
      </trkpt>
      <trkpt lat="48.55326" lon="-4.54645">
        <ele>24.415</ele>
        <time>2011-04-10T07:44:09Z</time>
      </trkpt>
      <trkpt lat="48.55326" lon="-4.54598">
        <ele>27.434</ele>
        <time>2011-04-10T07:44:17Z</time>
      </trkpt>
      <trkpt lat="48.55306" lon="-4.54466">
        <ele>30.469</ele>
        <time>2011-04-10T07:44:32Z</time>
      </trkpt>
      <trkpt lat="48.5526" lon="-4.54258">
        <ele>28.617</ele>
        <time>2011-04-10T07:44:56Z</time>
      </trkpt>
      <trkpt lat="48.55217" lon="-4.54083">
        <ele>26.204</ele>
        <time>2011-04-10T07:45:15Z</time>
      </trkpt>
      <trkpt lat="48.55184" lon="-4.53876">
        <ele>23.062</ele>
        <time>2011-04-10T07:45:36Z</time>
      </trkpt>
      <trkpt lat="48.55181" lon="-4.53842">
        <ele>22.672</ele>
        <time>2011-04-10T07:45:40Z</time>
      </trkpt>
      <trkpt lat="48.5518" lon="-4.53838">
        <ele>22.798</ele>
        <time>2011-04-10T07:45:42Z</time>
      </trkpt>
      <trkpt lat="48.55162" lon="-4.53778">
        <ele>18.043</ele>
        <time>2011-04-10T07:45:47Z</time>
      </trkpt>
      <trkpt lat="48.5514" lon="-4.53748">
        <ele>13.779</ele>
        <time>2011-04-10T07:45:50Z</time>
      </trkpt>
      <trkpt lat="48.55131" lon="-4.53742">
        <ele>13.069</ele>
        <time>2011-04-10T07:45:51Z</time>
      </trkpt>
      <trkpt lat="48.55113" lon="-4.5373">
        <ele>11.416</ele>
        <time>2011-04-10T07:45:53Z</time>
      </trkpt>
      <trkpt lat="48.55099" lon="-4.53675">
        <ele>8.159</ele>
        <time>2011-04-10T07:45:58Z</time>
      </trkpt>
      <trkpt lat="48.55099" lon="-4.53675">
        <ele>7.686</ele>
        <time>2011-04-10T07:45:59Z</time>
      </trkpt>
      <trkpt lat="48.5508" lon="-4.53564">
        <ele>3.673</ele>
        <time>2011-04-10T07:46:05Z</time>
      </trkpt>
      <trkpt lat="48.55078" lon="-4.5351">
        <ele>1.055</ele>
        <time>2011-04-10T07:46:09Z</time>
      </trkpt>
      <trkpt lat="48.55091" lon="-4.53486">
        <ele>1.831</ele>
        <time>2011-04-10T07:46:11Z</time>
      </trkpt>
      <trkpt lat="48.5512" lon="-4.53456">
        <ele>2.916</ele>
        <time>2011-04-10T07:46:15Z</time>
      </trkpt>
      <trkpt lat="48.55142" lon="-4.53392">
        <ele>5.266</ele>
        <time>2011-04-10T07:46:23Z</time>
      </trkpt>
      <trkpt lat="48.55138" lon="-4.53362">
        <ele>5.137</ele>
        <time>2011-04-10T07:46:24Z</time>
      </trkpt>
      <trkpt lat="48.55114" lon="-4.53181">
        <ele>6.203</ele>
        <time>2011-04-10T07:46:43Z</time>
      </trkpt>
      <trkpt lat="48.55062" lon="-4.53135">
        <ele>6.501</ele>
        <time>2011-04-10T07:46:53Z</time>
      </trkpt>
      <trkpt lat="48.55036" lon="-4.53135">
        <ele>5.889</ele>
        <time>2011-04-10T07:46:57Z</time>
      </trkpt>
      <trkpt lat="48.54977" lon="-4.53166">
        <ele>4.477</ele>
        <time>2011-04-10T07:47:06Z</time>
      </trkpt>
      <trkpt lat="48.5495" lon="-4.53196">
        <ele>4.353</ele>
        <time>2011-04-10T07:47:11Z</time>
      </trkpt>
      <trkpt lat="48.54896" lon="-4.53189">
        <ele>2.9</ele>
        <time>2011-04-10T07:47:20Z</time>
      </trkpt>
      <trkpt lat="48.5488" lon="-4.53169">
        <ele>2.043</ele>
        <time>2011-04-10T07:47:23Z</time>
      </trkpt>
      <trkpt lat="48.5487" lon="-4.53143">
        <ele>1.882</ele>
        <time>2011-04-10T07:47:26Z</time>
      </trkpt>
      <trkpt lat="48.54867" lon="-4.53105">
        <ele>1.615</ele>
        <time>2011-04-10T07:47:32Z</time>
      </trkpt>
      <trkpt lat="48.54874" lon="-4.5306">
        <ele>1.381</ele>
        <time>2011-04-10T07:47:35Z</time>
      </trkpt>
      <trkpt lat="48.54905" lon="-4.53016">
        <ele>1.907</ele>
        <time>2011-04-10T07:47:43Z</time>
      </trkpt>
      <trkpt lat="48.54911" lon="-4.53015">
        <ele>2.331</ele>
        <time>2011-04-10T07:47:44Z</time>
      </trkpt>
      <trkpt lat="48.54958" lon="-4.53008">
        <ele>4.514</ele>
        <time>2011-04-10T07:47:53Z</time>
      </trkpt>
      <trkpt lat="48.55007" lon="-4.52961">
        <ele>7.5</ele>
        <time>2011-04-10T07:48:06Z</time>
      </trkpt>
      <trkpt lat="48.55019" lon="-4.52918">
        <ele>9.366</ele>
        <time>2011-04-10T07:48:13Z</time>
      </trkpt>
      <trkpt lat="48.55022" lon="-4.52903">
        <ele>10.2</ele>
        <time>2011-04-10T07:48:16Z</time>
      </trkpt>
      <trkpt lat="48.54985" lon="-4.52805">
        <ele>13.974</ele>
        <time>2011-04-10T07:48:32Z</time>
      </trkpt>
      <trkpt lat="48.54944" lon="-4.52731">
        <ele>17.008</ele>
        <time>2011-04-10T07:48:47Z</time>
      </trkpt>
      <trkpt lat="48.549" lon="-4.52655">
        <ele>20.982</ele>
        <time>2011-04-10T07:49:02Z</time>
      </trkpt>
      <trkpt lat="48.54894" lon="-4.52641">
        <ele>21.153</ele>
        <time>2011-04-10T07:49:05Z</time>
      </trkpt>
      <trkpt lat="48.54886" lon="-4.5262">
        <ele>22.025</ele>
        <time>2011-04-10T07:49:09Z</time>
      </trkpt>
      <trkpt lat="48.54884" lon="-4.52615">
        <ele>22.786</ele>
        <time>2011-04-10T07:49:13Z</time>
      </trkpt>
      <trkpt lat="48.54882" lon="-4.52494">
        <ele>26.024</ele>
        <time>2011-04-10T07:49:29Z</time>
      </trkpt>
      <trkpt lat="48.54876" lon="-4.52388">
        <ele>29.354</ele>
        <time>2011-04-10T07:49:45Z</time>
      </trkpt>
      <trkpt lat="48.54857" lon="-4.52291">
        <ele>32.433</ele>
        <time>2011-04-10T07:50:00Z</time>
      </trkpt>
      <trkpt lat="48.54839" lon="-4.52188">
        <ele>35.473</ele>
        <time>2011-04-10T07:50:17Z</time>
      </trkpt>
      <trkpt lat="48.54848" lon="-4.52096">
        <ele>35.603</ele>
        <time>2011-04-10T07:50:34Z</time>
      </trkpt>
      <trkpt lat="48.54866" lon="-4.51967">
        <ele>32.518</ele>
        <time>2011-04-10T07:50:53Z</time>
      </trkpt>
      <trkpt lat="48.54871" lon="-4.51929">
        <ele>31.356</ele>
        <time>2011-04-10T07:50:58Z</time>
      </trkpt>
      <trkpt lat="48.54847" lon="-4.51857">
        <ele>30.314</ele>
        <time>2011-04-10T07:51:05Z</time>
      </trkpt>
      <trkpt lat="48.54785" lon="-4.51726">
        <ele>29.6</ele>
        <time>2011-04-10T07:51:21Z</time>
      </trkpt>
      <trkpt lat="48.5471" lon="-4.51548">
        <ele>26.311</ele>
        <time>2011-04-10T07:51:41Z</time>
      </trkpt>
      <trkpt lat="48.54678" lon="-4.51453">
        <ele>23.18</ele>
        <time>2011-04-10T07:51:50Z</time>
      </trkpt>
      <trkpt lat="48.54653" lon="-4.51368">
        <ele>26.138</ele>
        <time>2011-04-10T07:51:59Z</time>
      </trkpt>
      <trkpt lat="48.54667" lon="-4.51323">
        <ele>28.649</ele>
        <time>2011-04-10T07:52:06Z</time>
      </trkpt>
      <trkpt lat="48.54767" lon="-4.51243">
        <ele>30.174</ele>
        <time>2011-04-10T07:52:26Z</time>
      </trkpt>
      <trkpt lat="48.54834" lon="-4.51188">
        <ele>31.789</ele>
        <time>2011-04-10T07:52:39Z</time>
      </trkpt>
      <trkpt lat="48.54847" lon="-4.51127">
        <ele>31.962</ele>
        <time>2011-04-10T07:52:47Z</time>
      </trkpt>
      <trkpt lat="48.54834" lon="-4.51084">
        <ele>29.88</ele>
        <time>2011-04-10T07:52:52Z</time>
      </trkpt>
      <trkpt lat="48.5483" lon="-4.51075">
        <ele>29.465</ele>
        <time>2011-04-10T07:52:53Z</time>
      </trkpt>
      <trkpt lat="48.54788" lon="-4.51017">
        <ele>25.218</ele>
        <time>2011-04-10T07:53:00Z</time>
      </trkpt>
      <trkpt lat="48.54781" lon="-4.51008">
        <ele>24.867</ele>
        <time>2011-04-10T07:53:01Z</time>
      </trkpt>
      <trkpt lat="48.5475" lon="-4.50976">
        <ele>22.669</ele>
        <time>2011-04-10T07:53:05Z</time>
      </trkpt>
      <trkpt lat="48.54703" lon="-4.50972">
        <ele>18.939</ele>
        <time>2011-04-10T07:53:10Z</time>
      </trkpt>
      <trkpt lat="48.5465" lon="-4.50929">
        <ele>15.937</ele>
        <time>2011-04-10T07:53:15Z</time>
      </trkpt>
      <trkpt lat="48.54615" lon="-4.50882">
        <ele>12.841</ele>
        <time>2011-04-10T07:53:19Z</time>
      </trkpt>
      <trkpt lat="48.54597" lon="-4.5084">
        <ele>11.148</ele>
        <time>2011-04-10T07:53:22Z</time>
      </trkpt>
      <trkpt lat="48.54581" lon="-4.50777">
        <ele>8.137</ele>
        <time>2011-04-10T07:53:26Z</time>
      </trkpt>
      <trkpt lat="48.54582" lon="-4.50725">
        <ele>6.697</ele>
        <time>2011-04-10T07:53:30Z</time>
      </trkpt>
      <trkpt lat="48.54599" lon="-4.50682">
        <ele>5.146</ele>
        <time>2011-04-10T07:53:33Z</time>
      </trkpt>
      <trkpt lat="48.5459" lon="-4.50622">
        <ele>4.056</ele>
        <time>2011-04-10T07:53:36Z</time>
      </trkpt>
      <trkpt lat="48.54568" lon="-4.50575">
        <ele>2.214</ele>
        <time>2011-04-10T07:53:40Z</time>
      </trkpt>
      <trkpt lat="48.54554" lon="-4.5051">
        <ele>2.752</ele>
        <time>2011-04-10T07:53:46Z</time>
      </trkpt>
      <trkpt lat="48.54561" lon="-4.50481">
        <ele>2.469</ele>
        <time>2011-04-10T07:53:52Z</time>
      </trkpt>
      <trkpt lat="48.54569" lon="-4.50485">
        <ele>1.809</ele>
        <time>2011-04-10T07:53:54Z</time>
      </trkpt>
      <trkpt lat="48.54578" lon="-4.50446">
        <ele>1.387</ele>
        <time>2011-04-10T07:53:59Z</time>
      </trkpt>
      <trkpt lat="48.5457" lon="-4.50429">
        <ele>1.208</ele>
        <time>2011-04-10T07:54:01Z</time>
      </trkpt>
      <trkpt lat="48.54555" lon="-4.50409">
        <ele>2.314</ele>
        <time>2011-04-10T07:54:05Z</time>
      </trkpt>
      <trkpt lat="48.54545" lon="-4.50396">
        <ele>2.869</ele>
        <time>2011-04-10T07:54:08Z</time>
      </trkpt>
      <trkpt lat="48.54481" lon="-4.50314">
        <ele>6.1</ele>
        <time>2011-04-10T07:54:27Z</time>
      </trkpt>
      <trkpt lat="48.54442" lon="-4.50221">
        <ele>5.983</ele>
        <time>2011-04-10T07:54:42Z</time>
      </trkpt>
      <trkpt lat="48.54429" lon="-4.50077">
        <ele>4.209</ele>
        <time>2011-04-10T07:55:01Z</time>
      </trkpt>
      <trkpt lat="48.54396" lon="-4.49945">
        <ele>3.444</ele>
        <time>2011-04-10T07:55:18Z</time>
      </trkpt>
      <trkpt lat="48.54302" lon="-4.49778">
        <ele>3.402</ele>
        <time>2011-04-10T07:55:44Z</time>
      </trkpt>
      <trkpt lat="48.54246" lon="-4.49632">
        <ele>5.607</ele>
        <time>2011-04-10T07:56:07Z</time>
      </trkpt>
      <trkpt lat="48.54236" lon="-4.49502">
        <ele>6.512</ele>
        <time>2011-04-10T07:56:25Z</time>
      </trkpt>
      <trkpt lat="48.54231" lon="-4.49386">
        <ele>7.496</ele>
        <time>2011-04-10T07:56:40Z</time>
      </trkpt>
      <trkpt lat="48.54194" lon="-4.49228">
        <ele>8.731</ele>
        <time>2011-04-10T07:57:01Z</time>
      </trkpt>
      <trkpt lat="48.54125" lon="-4.49074">
        <ele>9.923</ele>
        <time>2011-04-10T07:57:24Z</time>
      </trkpt>
      <trkpt lat="48.54045" lon="-4.48886">
        <ele>11.722</ele>
        <time>2011-04-10T07:57:52Z</time>
      </trkpt>
      <trkpt lat="48.54016" lon="-4.48692">
        <ele>12.372</ele>
        <time>2011-04-10T07:58:17Z</time>
      </trkpt>
      <trkpt lat="48.53966" lon="-4.48509">
        <ele>13.316</ele>
        <time>2011-04-10T07:58:41Z</time>
      </trkpt>
      <trkpt lat="48.53882" lon="-4.48363">
        <ele>14.554</ele>
        <time>2011-04-10T07:59:04Z</time>
      </trkpt>
      <trkpt lat="48.53777" lon="-4.48186">
        <ele>17.337</ele>
        <time>2011-04-10T07:59:35Z</time>
      </trkpt>
      <trkpt lat="48.53734" lon="-4.4807">
        <ele>20.416</ele>
        <time>2011-04-10T07:59:50Z</time>
      </trkpt>
      <trkpt lat="48.53693" lon="-4.47971">
        <ele>23.543</ele>
        <time>2011-04-10T08:00:07Z</time>
      </trkpt>
      <trkpt lat="48.53651" lon="-4.47888">
        <ele>26.815</ele>
        <time>2011-04-10T08:00:23Z</time>
      </trkpt>
      <trkpt lat="48.53621" lon="-4.47828">
        <ele>29.959</ele>
        <time>2011-04-10T08:00:35Z</time>
      </trkpt>
      <trkpt lat="48.53588" lon="-4.47762">
        <ele>33.306</ele>
        <time>2011-04-10T08:00:49Z</time>
      </trkpt>
      <trkpt lat="48.53541" lon="-4.47632">
        <ele>36.313</ele>
        <time>2011-04-10T08:01:10Z</time>
      </trkpt>
      <trkpt lat="48.53456" lon="-4.47496">
        <ele>39.06</ele>
        <time>2011-04-10T08:01:37Z</time>
      </trkpt>
      <trkpt lat="48.53363" lon="-4.47407">
        <ele>42.292</ele>
        <time>2011-04-10T08:02:01Z</time>
      </trkpt>
      <trkpt lat="48.533" lon="-4.47344">
        <ele>45.477</ele>
        <time>2011-04-10T08:02:19Z</time>
      </trkpt>
      <trkpt lat="48.53247" lon="-4.47287">
        <ele>48.928</ele>
        <time>2011-04-10T08:02:34Z</time>
      </trkpt>
      <trkpt lat="48.53212" lon="-4.47229">
        <ele>52.187</ele>
        <time>2011-04-10T08:02:46Z</time>
      </trkpt>
      <trkpt lat="48.5318" lon="-4.47168">
        <ele>55.292</ele>
        <time>2011-04-10T08:02:58Z</time>
      </trkpt>
      <trkpt lat="48.5314" lon="-4.47093">
        <ele>58.345</ele>
        <time>2011-04-10T08:03:13Z</time>
      </trkpt>
      <trkpt lat="48.53071" lon="-4.46966">
        <ele>61.402</ele>
        <time>2011-04-10T08:03:38Z</time>
      </trkpt>
      <trkpt lat="48.53013" lon="-4.46848">
        <ele>63.232</ele>
        <time>2011-04-10T08:04:02Z</time>
      </trkpt>
      <trkpt lat="48.52989" lon="-4.46712">
        <ele>63.254</ele>
        <time>2011-04-10T08:04:24Z</time>
      </trkpt>
      <trkpt lat="48.5297" lon="-4.46573">
        <ele>62.598</ele>
        <time>2011-04-10T08:04:41Z</time>
      </trkpt>
      <trkpt lat="48.52979" lon="-4.46405">
        <ele>62.882</ele>
        <time>2011-04-10T08:04:59Z</time>
      </trkpt>
      <trkpt lat="48.53003" lon="-4.46173">
        <ele>61.013</ele>
        <time>2011-04-10T08:05:23Z</time>
      </trkpt>
      <trkpt lat="48.53026" lon="-4.45998">
        <ele>57.975</ele>
        <time>2011-04-10T08:05:43Z</time>
      </trkpt>
      <trkpt lat="48.53036" lon="-4.45807">
        <ele>55.025</ele>
        <time>2011-04-10T08:05:59Z</time>
      </trkpt>
      <trkpt lat="48.5302" lon="-4.45668">
        <ele>51.95</ele>
        <time>2011-04-10T08:06:12Z</time>
      </trkpt>
      <trkpt lat="48.53012" lon="-4.45526">
        <ele>49.029</ele>
        <time>2011-04-10T08:06:24Z</time>
      </trkpt>
      <trkpt lat="48.52985" lon="-4.45477">
        <ele>50.189</ele>
        <time>2011-04-10T08:06:30Z</time>
      </trkpt>
      <trkpt lat="48.52977" lon="-4.45427">
        <ele>51.291</ele>
        <time>2011-04-10T08:06:36Z</time>
      </trkpt>
      <trkpt lat="48.52964" lon="-4.45254">
        <ele>54.459</ele>
        <time>2011-04-10T08:06:59Z</time>
      </trkpt>
      <trkpt lat="48.52963" lon="-4.45235">
        <ele>54.976</ele>
        <time>2011-04-10T08:07:03Z</time>
      </trkpt>
      <trkpt lat="48.52946" lon="-4.45239">
        <ele>53.739</ele>
        <time>2011-04-10T08:07:08Z</time>
      </trkpt>
      <trkpt lat="48.52937" lon="-4.45244">
        <ele>53.759</ele>
        <time>2011-04-10T08:07:10Z</time>
      </trkpt>
      <trkpt lat="48.52902" lon="-4.45245">
        <ele>53.727</ele>
        <time>2011-04-10T08:07:17Z</time>
      </trkpt>
      <trkpt lat="48.52833" lon="-4.45214">
        <ele>53.468</ele>
        <time>2011-04-10T08:07:30Z</time>
      </trkpt>
      <trkpt lat="48.52803" lon="-4.4521">
        <ele>53.837</ele>
        <time>2011-04-10T08:07:35Z</time>
      </trkpt>
      <trkpt lat="48.52705" lon="-4.45222">
        <ele>54.076</ele>
        <time>2011-04-10T08:07:52Z</time>
      </trkpt>
      <trkpt lat="48.52626" lon="-4.45232">
        <ele>55.346</ele>
        <time>2011-04-10T08:08:06Z</time>
      </trkpt>
      <trkpt lat="48.52608" lon="-4.45253">
        <ele>55.209</ele>
        <time>2011-04-10T08:08:10Z</time>
      </trkpt>
      <trkpt lat="48.52572" lon="-4.45295">
        <ele>55.018</ele>
        <time>2011-04-10T08:08:18Z</time>
      </trkpt>
      <trkpt lat="48.52494" lon="-4.45428">
        <ele>55.42</ele>
        <time>2011-04-10T08:08:39Z</time>
      </trkpt>
      <trkpt lat="48.52424" lon="-4.45481">
        <ele>55.593</ele>
        <time>2011-04-10T08:08:53Z</time>
      </trkpt>
      <trkpt lat="48.52295" lon="-4.45538">
        <ele>56.858</ele>
        <time>2011-04-10T08:09:16Z</time>
      </trkpt>
      <trkpt lat="48.52176" lon="-4.45581">
        <ele>58.216</ele>
        <time>2011-04-10T08:09:40Z</time>
      </trkpt>
      <trkpt lat="48.52086" lon="-4.45574">
        <ele>59.492</ele>
        <time>2011-04-10T08:09:55Z</time>
      </trkpt>
      <trkpt lat="48.51993" lon="-4.45514">
        <ele>60.027</ele>
        <time>2011-04-10T08:10:12Z</time>
      </trkpt>
      <trkpt lat="48.51892" lon="-4.45516">
        <ele>63.252</ele>
        <time>2011-04-10T08:10:30Z</time>
      </trkpt>
      <trkpt lat="48.51764" lon="-4.45532">
        <ele>64.957</ele>
        <time>2011-04-10T08:10:53Z</time>
      </trkpt>
      <trkpt lat="48.51662" lon="-4.4554">
        <ele>61.613</ele>
        <time>2011-04-10T08:11:09Z</time>
      </trkpt>
      <trkpt lat="48.51648" lon="-4.45543">
        <ele>60.732</ele>
        <time>2011-04-10T08:11:11Z</time>
      </trkpt>
      <trkpt lat="48.51571" lon="-4.4558">
        <ele>57.154</ele>
        <time>2011-04-10T08:11:22Z</time>
      </trkpt>
      <trkpt lat="48.51563" lon="-4.45586">
        <ele>56.959</ele>
        <time>2011-04-10T08:11:23Z</time>
      </trkpt>
      <trkpt lat="48.51477" lon="-4.45646">
        <ele>55.205</ele>
        <time>2011-04-10T08:11:36Z</time>
      </trkpt>
      <trkpt lat="48.51399" lon="-4.45726">
        <ele>58.974</ele>
        <time>2011-04-10T08:11:49Z</time>
      </trkpt>
      <trkpt lat="48.51375" lon="-4.45755">
        <ele>62.148</ele>
        <time>2011-04-10T08:11:55Z</time>
      </trkpt>
      <trkpt lat="48.51371" lon="-4.4576">
        <ele>62.256</ele>
        <time>2011-04-10T08:11:56Z</time>
      </trkpt>
      <trkpt lat="48.51304" lon="-4.45798">
        <ele>65.083</ele>
        <time>2011-04-10T08:12:10Z</time>
      </trkpt>
      <trkpt lat="48.51242" lon="-4.45851">
        <ele>67.21</ele>
        <time>2011-04-10T08:12:24Z</time>
      </trkpt>
      <trkpt lat="48.51167" lon="-4.45968">
        <ele>69.63</ele>
        <time>2011-04-10T08:12:46Z</time>
      </trkpt>
      <trkpt lat="48.51047" lon="-4.46082">
        <ele>70.974</ele>
        <time>2011-04-10T08:13:14Z</time>
      </trkpt>
      <trkpt lat="48.50924" lon="-4.46161">
        <ele>73.444</ele>
        <time>2011-04-10T08:13:39Z</time>
      </trkpt>
      <trkpt lat="48.508" lon="-4.46184">
        <ele>72.24</ele>
        <time>2011-04-10T08:14:01Z</time>
      </trkpt>
      <trkpt lat="48.50717" lon="-4.46208">
        <ele>69.219</ele>
        <time>2011-04-10T08:14:14Z</time>
      </trkpt>
      <trkpt lat="48.50591" lon="-4.46223">
        <ele>66.356</ele>
        <time>2011-04-10T08:14:32Z</time>
      </trkpt>
      <trkpt lat="48.50475" lon="-4.46215">
        <ele>65.413</ele>
        <time>2011-04-10T08:14:49Z</time>
      </trkpt>
      <trkpt lat="48.50345" lon="-4.46279">
        <ele>65.078</ele>
        <time>2011-04-10T08:15:10Z</time>
      </trkpt>
      <trkpt lat="48.50205" lon="-4.46332">
        <ele>65.627</ele>
        <time>2011-04-10T08:15:33Z</time>
      </trkpt>
      <trkpt lat="48.50108" lon="-4.4639">
        <ele>68.492</ele>
        <time>2011-04-10T08:15:52Z</time>
      </trkpt>
      <trkpt lat="48.50012" lon="-4.46472">
        <ele>71.086</ele>
        <time>2011-04-10T08:16:14Z</time>
      </trkpt>
      <trkpt lat="48.49949" lon="-4.46564">
        <ele>74.315</ele>
        <time>2011-04-10T08:16:32Z</time>
      </trkpt>
      <trkpt lat="48.49831" lon="-4.46683">
        <ele>76.123</ele>
        <time>2011-04-10T08:17:00Z</time>
      </trkpt>
      <trkpt lat="48.4974" lon="-4.46738">
        <ele>78.713</ele>
        <time>2011-04-10T08:17:20Z</time>
      </trkpt>
      <trkpt lat="48.49609" lon="-4.46739">
        <ele>80.4</ele>
        <time>2011-04-10T08:17:45Z</time>
      </trkpt>
      <trkpt lat="48.49492" lon="-4.46707">
        <ele>77.593</ele>
        <time>2011-04-10T08:18:04Z</time>
      </trkpt>
      <trkpt lat="48.49483" lon="-4.46675">
        <ele>77.004</ele>
        <time>2011-04-10T08:18:09Z</time>
      </trkpt>
      <trkpt lat="48.49527" lon="-4.46463">
        <ele>73.905</ele>
        <time>2011-04-10T08:18:32Z</time>
      </trkpt>
      <trkpt lat="48.49588" lon="-4.46245">
        <ele>71.984</ele>
        <time>2011-04-10T08:18:55Z</time>
      </trkpt>
      <trkpt lat="48.49626" lon="-4.46092">
        <ele>69.312</ele>
        <time>2011-04-10T08:19:10Z</time>
      </trkpt>
      <trkpt lat="48.49649" lon="-4.45939">
        <ele>65.853</ele>
        <time>2011-04-10T08:19:24Z</time>
      </trkpt>
      <trkpt lat="48.49649" lon="-4.4586">
        <ele>63.188</ele>
        <time>2011-04-10T08:19:33Z</time>
      </trkpt>
      <trkpt lat="48.49653" lon="-4.45663">
        <ele>62.692</ele>
        <time>2011-04-10T08:19:50Z</time>
      </trkpt>
      <trkpt lat="48.49643" lon="-4.45535">
        <ele>65.792</ele>
        <time>2011-04-10T08:20:02Z</time>
      </trkpt>
      <trkpt lat="48.4964" lon="-4.45512">
        <ele>67.295</ele>
        <time>2011-04-10T08:20:05Z</time>
      </trkpt>
      <trkpt lat="48.49631" lon="-4.45447">
        <ele>70.157</ele>
        <time>2011-04-10T08:20:14Z</time>
      </trkpt>
      <trkpt lat="48.49625" lon="-4.45318">
        <ele>73.539</ele>
        <time>2011-04-10T08:20:31Z</time>
      </trkpt>
      <trkpt lat="48.49617" lon="-4.45146">
        <ele>76.201</ele>
        <time>2011-04-10T08:20:55Z</time>
      </trkpt>
      <trkpt lat="48.4961" lon="-4.44933">
        <ele>78.517</ele>
        <time>2011-04-10T08:21:23Z</time>
      </trkpt>
      <trkpt lat="48.49617" lon="-4.44724">
        <ele>79.03</ele>
        <time>2011-04-10T08:21:48Z</time>
      </trkpt>
      <trkpt lat="48.49612" lon="-4.44554">
        <ele>76.898</ele>
        <time>2011-04-10T08:22:06Z</time>
      </trkpt>
      <trkpt lat="48.49575" lon="-4.4431">
        <ele>77.505</ele>
        <time>2011-04-10T08:22:32Z</time>
      </trkpt>
      <trkpt lat="48.49556" lon="-4.44097">
        <ele>77.16</ele>
        <time>2011-04-10T08:22:55Z</time>
      </trkpt>
      <trkpt lat="48.49523" lon="-4.43815">
        <ele>75.755</ele>
        <time>2011-04-10T08:23:23Z</time>
      </trkpt>
      <trkpt lat="48.4949" lon="-4.43598">
        <ele>78.284</ele>
        <time>2011-04-10T08:23:47Z</time>
      </trkpt>
      <trkpt lat="48.49468" lon="-4.43512">
        <ele>76.261</ele>
        <time>2011-04-10T08:23:57Z</time>
      </trkpt>
      <trkpt lat="48.4943" lon="-4.43417">
        <ele>73.526</ele>
        <time>2011-04-10T08:24:08Z</time>
      </trkpt>
      <trkpt lat="48.49417" lon="-4.43379">
        <ele>72.842</ele>
        <time>2011-04-10T08:24:12Z</time>
      </trkpt>
      <trkpt lat="48.49408" lon="-4.43354">
        <ele>70.752</ele>
        <time>2011-04-10T08:24:17Z</time>
      </trkpt>
      <trkpt lat="48.49369" lon="-4.43291">
        <ele>67.718</ele>
        <time>2011-04-10T08:24:22Z</time>
      </trkpt>
      <trkpt lat="48.49349" lon="-4.43269">
        <ele>66.283</ele>
        <time>2011-04-10T08:24:25Z</time>
      </trkpt>
      <trkpt lat="48.49343" lon="-4.43262">
        <ele>66.277</ele>
        <time>2011-04-10T08:24:26Z</time>
      </trkpt>
      <trkpt lat="48.49311" lon="-4.43242">
        <ele>66.251</ele>
        <time>2011-04-10T08:24:31Z</time>
      </trkpt>
      <trkpt lat="48.49311" lon="-4.43208">
        <ele>64.466</ele>
        <time>2011-04-10T08:24:37Z</time>
      </trkpt>
      <trkpt lat="48.49317" lon="-4.43208">
        <ele>64.324</ele>
        <time>2011-04-10T08:24:38Z</time>
      </trkpt>
      <trkpt lat="48.49342" lon="-4.43177">
        <ele>63.969</ele>
        <time>2011-04-10T08:24:43Z</time>
      </trkpt>
      <trkpt lat="48.49385" lon="-4.43109">
        <ele>60.402</ele>
        <time>2011-04-10T08:24:52Z</time>
      </trkpt>
      <trkpt lat="48.49484" lon="-4.42965">
        <ele>58.434</ele>
        <time>2011-04-10T08:25:11Z</time>
      </trkpt>
      <trkpt lat="48.49538" lon="-4.42918">
        <ele>61.544</ele>
        <time>2011-04-10T08:25:22Z</time>
      </trkpt>
      <trkpt lat="48.49543" lon="-4.42914">
        <ele>61.675</ele>
        <time>2011-04-10T08:25:23Z</time>
      </trkpt>
      <trkpt lat="48.49557" lon="-4.42878">
        <ele>62.945</ele>
        <time>2011-04-10T08:25:29Z</time>
      </trkpt>
      <trkpt lat="48.49591" lon="-4.42889">
        <ele>64.591</ele>
        <time>2011-04-10T08:25:37Z</time>
      </trkpt>
      <trkpt lat="48.49592" lon="-4.42898">
        <ele>64.421</ele>
        <time>2011-04-10T08:25:38Z</time>
      </trkpt>
      <trkpt lat="48.49589" lon="-4.42907">
        <ele>63.922</ele>
        <time>2011-04-10T08:25:40Z</time>
      </trkpt>
      <trkpt lat="48.49609" lon="-4.42948">
        <ele>60.609</ele>
        <time>2011-04-10T08:25:45Z</time>
      </trkpt>
      <trkpt lat="48.49705" lon="-4.42994">
        <ele>60.268</ele>
        <time>2011-04-10T08:26:00Z</time>
      </trkpt>
      <trkpt lat="48.4977" lon="-4.43017">
        <ele>59.288</ele>
        <time>2011-04-10T08:26:11Z</time>
      </trkpt>
      <trkpt lat="48.4979" lon="-4.43015">
        <ele>60.62</ele>
        <time>2011-04-10T08:26:16Z</time>
      </trkpt>
      <trkpt lat="48.4979" lon="-4.43015">
        <ele>62.432</ele>
        <time>2011-04-10T08:26:20Z</time>
      </trkpt>
      <trkpt lat="48.49792" lon="-4.43017">
        <ele>62.738</ele>
        <time>2011-04-10T08:26:22Z</time>
      </trkpt>
      <trkpt lat="48.49834" lon="-4.4303">
        <ele>62.982</ele>
        <time>2011-04-10T08:26:33Z</time>
      </trkpt>
      <trkpt lat="48.49845" lon="-4.42998">
        <ele>63.614</ele>
        <time>2011-04-10T08:26:40Z</time>
      </trkpt>
    </trkseg>
  </trk>
  <trk>
    <name><![CDATA[ACTIVE LOG102652]]></name>
    <trkseg>
      <trkpt lat="48.49845" lon="-4.42996">
        <ele>63.817</ele>
        <time>2011-04-10T08:26:52Z</time>
      </trkpt>
      <trkpt lat="48.49845" lon="-4.42996">
        <ele>56.075</ele>
        <time>2011-04-10T08:26:53Z</time>
      </trkpt>
    </trkseg>
  </trk>
  <trk>
    <name><![CDATA[ACTIVE LOG103853]]></name>
    <trkseg>
      <trkpt lat="48.49845" lon="-4.42996">
        <ele>55.983</ele>
        <time>2011-04-10T08:38:53Z</time>
      </trkpt>
      <trkpt lat="48.49851" lon="-4.43004">
        <ele>56.537</ele>
        <time>2011-04-10T08:39:22Z</time>
      </trkpt>
      <trkpt lat="48.4985" lon="-4.43004">
        <ele>59.996</ele>
        <time>2011-04-10T08:39:26Z</time>
      </trkpt>
      <trkpt lat="48.49849" lon="-4.43004">
        <ele>63.187</ele>
        <time>2011-04-10T08:39:30Z</time>
      </trkpt>
      <trkpt lat="48.49849" lon="-4.43004">
        <ele>66.314</ele>
        <time>2011-04-10T08:39:35Z</time>
      </trkpt>
      <trkpt lat="48.49848" lon="-4.43004">
        <ele>69.514</ele>
        <time>2011-04-10T08:39:42Z</time>
      </trkpt>
      <trkpt lat="48.49848" lon="-4.43004">
        <ele>69.822</ele>
        <time>2011-04-10T08:39:43Z</time>
      </trkpt>
      <trkpt lat="48.49848" lon="-4.43008">
        <ele>70.809</ele>
        <time>2011-04-10T08:39:46Z</time>
      </trkpt>
      <trkpt lat="48.49841" lon="-4.43013">
        <ele>71.895</ele>
        <time>2011-04-10T08:39:50Z</time>
      </trkpt>
      <trkpt lat="48.49807" lon="-4.43015">
        <ele>73.37</ele>
        <time>2011-04-10T08:40:02Z</time>
      </trkpt>
      <trkpt lat="48.49786" lon="-4.42998">
        <ele>71.686</ele>
        <time>2011-04-10T08:40:08Z</time>
      </trkpt>
      <trkpt lat="48.49784" lon="-4.43032">
        <ele>71.908</ele>
        <time>2011-04-10T08:40:15Z</time>
      </trkpt>
      <trkpt lat="48.49782" lon="-4.43024">
        <ele>71.94</ele>
        <time>2011-04-10T08:40:17Z</time>
      </trkpt>
      <trkpt lat="48.49766" lon="-4.43015">
        <ele>71.688</ele>
        <time>2011-04-10T08:40:20Z</time>
      </trkpt>
      <trkpt lat="48.49675" lon="-4.42986">
        <ele>72.235</ele>
        <time>2011-04-10T08:40:39Z</time>
      </trkpt>
      <trkpt lat="48.49595" lon="-4.42933">
        <ele>74.473</ele>
        <time>2011-04-10T08:40:55Z</time>
      </trkpt>
      <trkpt lat="48.49584" lon="-4.42921">
        <ele>74.773</ele>
        <time>2011-04-10T08:40:59Z</time>
      </trkpt>
      <trkpt lat="48.49566" lon="-4.42928">
        <ele>74.187</ele>
        <time>2011-04-10T08:41:01Z</time>
      </trkpt>
      <trkpt lat="48.49554" lon="-4.42914">
        <ele>73.35</ele>
        <time>2011-04-10T08:41:04Z</time>
      </trkpt>
      <trkpt lat="48.49497" lon="-4.42954">
        <ele>69.44</ele>
        <time>2011-04-10T08:41:12Z</time>
      </trkpt>
      <trkpt lat="48.49422" lon="-4.43051">
        <ele>70.934</ele>
        <time>2011-04-10T08:41:27Z</time>
      </trkpt>
      <trkpt lat="48.49365" lon="-4.43141">
        <ele>74.068</ele>
        <time>2011-04-10T08:41:43Z</time>
      </trkpt>
      <trkpt lat="48.49322" lon="-4.43208">
        <ele>77.226</ele>
        <time>2011-04-10T08:41:59Z</time>
      </trkpt>
      <trkpt lat="48.49292" lon="-4.43255">
        <ele>78.137</ele>
        <time>2011-04-10T08:42:11Z</time>
      </trkpt>
      <trkpt lat="48.49207" lon="-4.43334">
        <ele>80.775</ele>
        <time>2011-04-10T08:42:36Z</time>
      </trkpt>
      <trkpt lat="48.49108" lon="-4.43373">
        <ele>82.868</ele>
        <time>2011-04-10T08:43:01Z</time>
      </trkpt>
      <trkpt lat="48.49022" lon="-4.43397">
        <ele>85.917</ele>
        <time>2011-04-10T08:43:21Z</time>
      </trkpt>
      <trkpt lat="48.48876" lon="-4.43411">
        <ele>87.458</ele>
        <time>2011-04-10T08:43:52Z</time>
      </trkpt>
      <trkpt lat="48.48755" lon="-4.43422">
        <ele>90.546</ele>
        <time>2011-04-10T08:44:18Z</time>
      </trkpt>
      <trkpt lat="48.48627" lon="-4.43449">
        <ele>91.662</ele>
        <time>2011-04-10T08:44:44Z</time>
      </trkpt>
      <trkpt lat="48.48475" lon="-4.43514">
        <ele>88.954</ele>
        <time>2011-04-10T08:45:10Z</time>
      </trkpt>
      <trkpt lat="48.48302" lon="-4.43589">
        <ele>91.246</ele>
        <time>2011-04-10T08:45:40Z</time>
      </trkpt>
      <trkpt lat="48.4816" lon="-4.4365">
        <ele>92.612</ele>
        <time>2011-04-10T08:46:08Z</time>
      </trkpt>
      <trkpt lat="48.48" lon="-4.43719">
        <ele>91.548</ele>
        <time>2011-04-10T08:46:36Z</time>
      </trkpt>
      <trkpt lat="48.47854" lon="-4.43786">
        <ele>92.162</ele>
        <time>2011-04-10T08:47:01Z</time>
      </trkpt>
      <trkpt lat="48.47736" lon="-4.43846">
        <ele>94.121</ele>
        <time>2011-04-10T08:47:23Z</time>
      </trkpt>
      <trkpt lat="48.47581" lon="-4.43915">
        <ele>96.559</ele>
        <time>2011-04-10T08:47:53Z</time>
      </trkpt>
      <trkpt lat="48.47462" lon="-4.43995">
        <ele>96.884</ele>
        <time>2011-04-10T08:48:17Z</time>
      </trkpt>
      <trkpt lat="48.47334" lon="-4.44097">
        <ele>96.609</ele>
        <time>2011-04-10T08:48:42Z</time>
      </trkpt>
      <trkpt lat="48.47226" lon="-4.44184">
        <ele>95.263</ele>
        <time>2011-04-10T08:49:02Z</time>
      </trkpt>
      <trkpt lat="48.47083" lon="-4.44296">
        <ele>96.786</ele>
        <time>2011-04-10T08:49:30Z</time>
      </trkpt>
      <trkpt lat="48.46975" lon="-4.44387">
        <ele>93.772</ele>
        <time>2011-04-10T08:49:50Z</time>
      </trkpt>
      <trkpt lat="48.46927" lon="-4.44438">
        <ele>90.737</ele>
        <time>2011-04-10T08:49:58Z</time>
      </trkpt>
      <trkpt lat="48.46811" lon="-4.44586">
        <ele>89.909</ele>
        <time>2011-04-10T08:50:18Z</time>
      </trkpt>
      <trkpt lat="48.46689" lon="-4.4473">
        <ele>91.102</ele>
        <time>2011-04-10T08:50:42Z</time>
      </trkpt>
      <trkpt lat="48.46555" lon="-4.44853">
        <ele>92.566</ele>
        <time>2011-04-10T08:51:07Z</time>
      </trkpt>
      <trkpt lat="48.46433" lon="-4.44946">
        <ele>94.374</ele>
        <time>2011-04-10T08:51:31Z</time>
      </trkpt>
      <trkpt lat="48.46428" lon="-4.44945">
        <ele>93.845</ele>
        <time>2011-04-10T08:51:32Z</time>
      </trkpt>
      <trkpt lat="48.46417" lon="-4.44942">
        <ele>92.461</ele>
        <time>2011-04-10T08:51:34Z</time>
      </trkpt>
      <trkpt lat="48.46396" lon="-4.45007">
        <ele>91.224</ele>
        <time>2011-04-10T08:51:41Z</time>
      </trkpt>
      <trkpt lat="48.46381" lon="-4.45049">
        <ele>90.423</ele>
        <time>2011-04-10T08:51:46Z</time>
      </trkpt>
      <trkpt lat="48.4632" lon="-4.45152">
        <ele>86.902</ele>
        <time>2011-04-10T08:51:59Z</time>
      </trkpt>
      <trkpt lat="48.46232" lon="-4.45294">
        <ele>83.796</ele>
        <time>2011-04-10T08:52:16Z</time>
      </trkpt>
      <trkpt lat="48.46139" lon="-4.45438">
        <ele>83.438</ele>
        <time>2011-04-10T08:52:34Z</time>
      </trkpt>
      <trkpt lat="48.46022" lon="-4.45623">
        <ele>84.148</ele>
        <time>2011-04-10T08:52:59Z</time>
      </trkpt>
      <trkpt lat="48.45938" lon="-4.45756">
        <ele>84.882</ele>
        <time>2011-04-10T08:53:19Z</time>
      </trkpt>
      <trkpt lat="48.45864" lon="-4.45871">
        <ele>88.124</ele>
        <time>2011-04-10T08:53:37Z</time>
      </trkpt>
      <trkpt lat="48.45756" lon="-4.46008">
        <ele>89.918</ele>
        <time>2011-04-10T08:54:02Z</time>
      </trkpt>
      <trkpt lat="48.45632" lon="-4.46119">
        <ele>90.106</ele>
        <time>2011-04-10T08:54:26Z</time>
      </trkpt>
      <trkpt lat="48.45518" lon="-4.46214">
        <ele>88.831</ele>
        <time>2011-04-10T08:54:47Z</time>
      </trkpt>
      <trkpt lat="48.45508" lon="-4.46225">
        <ele>88.678</ele>
        <time>2011-04-10T08:54:49Z</time>
      </trkpt>
      <trkpt lat="48.45493" lon="-4.46239">
        <ele>88.163</ele>
        <time>2011-04-10T08:54:52Z</time>
      </trkpt>
      <trkpt lat="48.45473" lon="-4.46262">
        <ele>87.625</ele>
        <time>2011-04-10T08:54:56Z</time>
      </trkpt>
      <trkpt lat="48.45353" lon="-4.4641">
        <ele>84.579</ele>
        <time>2011-04-10T08:55:18Z</time>
      </trkpt>
      <trkpt lat="48.45328" lon="-4.46445">
        <ele>84.881</ele>
        <time>2011-04-10T08:55:23Z</time>
      </trkpt>
      <trkpt lat="48.45314" lon="-4.46466">
        <ele>85.016</ele>
        <time>2011-04-10T08:55:27Z</time>
      </trkpt>
      <trkpt lat="48.4531" lon="-4.465">
        <ele>86.078</ele>
        <time>2011-04-10T08:55:31Z</time>
      </trkpt>
      <trkpt lat="48.45297" lon="-4.46491">
        <ele>85.689</ele>
        <time>2011-04-10T08:55:33Z</time>
      </trkpt>
      <trkpt lat="48.45222" lon="-4.46572">
        <ele>85.126</ele>
        <time>2011-04-10T08:55:49Z</time>
      </trkpt>
      <trkpt lat="48.45194" lon="-4.46602">
        <ele>85.719</ele>
        <time>2011-04-10T08:55:55Z</time>
      </trkpt>
      <trkpt lat="48.45138" lon="-4.46637">
        <ele>87.593</ele>
        <time>2011-04-10T08:56:09Z</time>
      </trkpt>
      <trkpt lat="48.45102" lon="-4.46661">
        <ele>86.99</ele>
        <time>2011-04-10T08:56:13Z</time>
      </trkpt>
      <trkpt lat="48.45051" lon="-4.46729">
        <ele>83.575</ele>
        <time>2011-04-10T08:56:23Z</time>
      </trkpt>
      <trkpt lat="48.45033" lon="-4.46752">
        <ele>81.964</ele>
        <time>2011-04-10T08:56:26Z</time>
      </trkpt>
      <trkpt lat="48.45027" lon="-4.46811">
        <ele>79.593</ele>
        <time>2011-04-10T08:56:31Z</time>
      </trkpt>
      <trkpt lat="48.45059" lon="-4.46988">
        <ele>79.012</ele>
        <time>2011-04-10T08:56:46Z</time>
      </trkpt>
      <trkpt lat="48.45046" lon="-4.47074">
        <ele>82.114</ele>
        <time>2011-04-10T08:56:56Z</time>
      </trkpt>
      <trkpt lat="48.45029" lon="-4.47129">
        <ele>83.647</ele>
        <time>2011-04-10T08:57:04Z</time>
      </trkpt>
      <trkpt lat="48.45029" lon="-4.47161">
        <ele>85.07</ele>
        <time>2011-04-10T08:57:08Z</time>
      </trkpt>
      <trkpt lat="48.45031" lon="-4.47178">
        <ele>86.042</ele>
        <time>2011-04-10T08:57:12Z</time>
      </trkpt>
      <trkpt lat="48.45024" lon="-4.47228">
        <ele>87.408</ele>
        <time>2011-04-10T08:57:18Z</time>
      </trkpt>
      <trkpt lat="48.45013" lon="-4.47247">
        <ele>87.742</ele>
        <time>2011-04-10T08:57:21Z</time>
      </trkpt>
      <trkpt lat="48.45005" lon="-4.47264">
        <ele>87.731</ele>
        <time>2011-04-10T08:57:26Z</time>
      </trkpt>
      <trkpt lat="48.44972" lon="-4.47452">
        <ele>85.917</ele>
        <time>2011-04-10T08:57:48Z</time>
      </trkpt>
      <trkpt lat="48.44955" lon="-4.47532">
        <ele>82.869</ele>
        <time>2011-04-10T08:57:56Z</time>
      </trkpt>
      <trkpt lat="48.44952" lon="-4.47543">
        <ele>82.678</ele>
        <time>2011-04-10T08:57:57Z</time>
      </trkpt>
      <trkpt lat="48.44937" lon="-4.47597">
        <ele>81.157</ele>
        <time>2011-04-10T08:58:02Z</time>
      </trkpt>
      <trkpt lat="48.44921" lon="-4.47642">
        <ele>80.58</ele>
        <time>2011-04-10T08:58:08Z</time>
      </trkpt>
      <trkpt lat="48.44919" lon="-4.47637">
        <ele>80.777</ele>
        <time>2011-04-10T08:58:09Z</time>
      </trkpt>
      <trkpt lat="48.44883" lon="-4.47627">
        <ele>79.732</ele>
        <time>2011-04-10T08:58:15Z</time>
      </trkpt>
      <trkpt lat="48.44773" lon="-4.47646">
        <ele>77.804</ele>
        <time>2011-04-10T08:58:39Z</time>
      </trkpt>
      <trkpt lat="48.44715" lon="-4.47643">
        <ele>75.314</ele>
        <time>2011-04-10T08:58:45Z</time>
      </trkpt>
      <trkpt lat="48.44675" lon="-4.47637">
        <ele>72.285</ele>
        <time>2011-04-10T08:58:50Z</time>
      </trkpt>
      <trkpt lat="48.44675" lon="-4.47637">
        <ele>72.159</ele>
        <time>2011-04-10T08:58:51Z</time>
      </trkpt>
      <trkpt lat="48.44558" lon="-4.47547">
        <ele>70.735</ele>
        <time>2011-04-10T08:59:06Z</time>
      </trkpt>
      <trkpt lat="48.44546" lon="-4.47538">
        <ele>71.98</ele>
        <time>2011-04-10T08:59:09Z</time>
      </trkpt>
      <trkpt lat="48.44517" lon="-4.47522">
        <ele>74.527</ele>
        <time>2011-04-10T08:59:14Z</time>
      </trkpt>
      <trkpt lat="48.44507" lon="-4.47521">
        <ele>75.16</ele>
        <time>2011-04-10T08:59:16Z</time>
      </trkpt>
      <trkpt lat="48.44493" lon="-4.47521">
        <ele>76.16</ele>
        <time>2011-04-10T08:59:19Z</time>
      </trkpt>
      <trkpt lat="48.44442" lon="-4.47529">
        <ele>79.421</ele>
        <time>2011-04-10T08:59:30Z</time>
      </trkpt>
      <trkpt lat="48.44432" lon="-4.47532">
        <ele>79.786</ele>
        <time>2011-04-10T08:59:32Z</time>
      </trkpt>
      <trkpt lat="48.44353" lon="-4.4757">
        <ele>80.583</ele>
        <time>2011-04-10T08:59:49Z</time>
      </trkpt>
      <trkpt lat="48.44311" lon="-4.47592">
        <ele>77.422</ele>
        <time>2011-04-10T08:59:56Z</time>
      </trkpt>
      <trkpt lat="48.44266" lon="-4.47616">
        <ele>74.233</ele>
        <time>2011-04-10T09:00:02Z</time>
      </trkpt>
      <trkpt lat="48.44224" lon="-4.47635">
        <ele>70.912</ele>
        <time>2011-04-10T09:00:07Z</time>
      </trkpt>
      <trkpt lat="48.44185" lon="-4.47654">
        <ele>68.496</ele>
        <time>2011-04-10T09:00:12Z</time>
      </trkpt>
      <trkpt lat="48.4414" lon="-4.47677">
        <ele>69.759</ele>
        <time>2011-04-10T09:00:17Z</time>
      </trkpt>
      <trkpt lat="48.44119" lon="-4.47683">
        <ele>71.015</ele>
        <time>2011-04-10T09:00:20Z</time>
      </trkpt>
      <trkpt lat="48.44058" lon="-4.47689">
        <ele>73.093</ele>
        <time>2011-04-10T09:00:30Z</time>
      </trkpt>
      <trkpt lat="48.44044" lon="-4.47689">
        <ele>74.615</ele>
        <time>2011-04-10T09:00:33Z</time>
      </trkpt>
      <trkpt lat="48.44044" lon="-4.47689">
        <ele>74.935</ele>
        <time>2011-04-10T09:00:34Z</time>
      </trkpt>
      <trkpt lat="48.44023" lon="-4.47685">
        <ele>75.07</ele>
        <time>2011-04-10T09:00:37Z</time>
      </trkpt>
      <trkpt lat="48.43894" lon="-4.47684">
        <ele>72.136</ele>
        <time>2011-04-10T09:00:58Z</time>
      </trkpt>
      <trkpt lat="48.43806" lon="-4.47725">
        <ele>68.986</ele>
        <time>2011-04-10T09:01:11Z</time>
      </trkpt>
      <trkpt lat="48.43735" lon="-4.47813">
        <ele>67.932</ele>
        <time>2011-04-10T09:01:26Z</time>
      </trkpt>
      <trkpt lat="48.43697" lon="-4.47862">
        <ele>68.168</ele>
        <time>2011-04-10T09:01:32Z</time>
      </trkpt>
      <trkpt lat="48.43674" lon="-4.47879">
        <ele>68.91</ele>
        <time>2011-04-10T09:01:36Z</time>
      </trkpt>
      <trkpt lat="48.4359" lon="-4.47889">
        <ele>72.049</ele>
        <time>2011-04-10T09:01:50Z</time>
      </trkpt>
      <trkpt lat="48.43541" lon="-4.47893">
        <ele>75.232</ele>
        <time>2011-04-10T09:02:00Z</time>
      </trkpt>
      <trkpt lat="48.43498" lon="-4.47897">
        <ele>78.362</ele>
        <time>2011-04-10T09:02:09Z</time>
      </trkpt>
      <trkpt lat="48.43475" lon="-4.47897">
        <ele>79.902</ele>
        <time>2011-04-10T09:02:14Z</time>
      </trkpt>
      <trkpt lat="48.4342" lon="-4.47883">
        <ele>82.482</ele>
        <time>2011-04-10T09:02:27Z</time>
      </trkpt>
      <trkpt lat="48.43358" lon="-4.47854">
        <ele>81.327</ele>
        <time>2011-04-10T09:02:40Z</time>
      </trkpt>
      <trkpt lat="48.43335" lon="-4.47837">
        <ele>79.584</ele>
        <time>2011-04-10T09:02:44Z</time>
      </trkpt>
      <trkpt lat="48.43253" lon="-4.47778">
        <ele>79.224</ele>
        <time>2011-04-10T09:02:57Z</time>
      </trkpt>
      <trkpt lat="48.43201" lon="-4.47757">
        <ele>82.284</ele>
        <time>2011-04-10T09:03:07Z</time>
      </trkpt>
      <trkpt lat="48.43143" lon="-4.47742">
        <ele>85.324</ele>
        <time>2011-04-10T09:03:18Z</time>
      </trkpt>
      <trkpt lat="48.43089" lon="-4.47728">
        <ele>88.474</ele>
        <time>2011-04-10T09:03:29Z</time>
      </trkpt>
      <trkpt lat="48.43033" lon="-4.47717">
        <ele>91.499</ele>
        <time>2011-04-10T09:03:40Z</time>
      </trkpt>
      <trkpt lat="48.42958" lon="-4.47706">
        <ele>92.391</ele>
        <time>2011-04-10T09:03:57Z</time>
      </trkpt>
      <trkpt lat="48.42917" lon="-4.47697">
        <ele>91.681</ele>
        <time>2011-04-10T09:04:06Z</time>
      </trkpt>
      <trkpt lat="48.42883" lon="-4.47689">
        <ele>91.802</ele>
        <time>2011-04-10T09:04:12Z</time>
      </trkpt>
      <trkpt lat="48.42772" lon="-4.47667">
        <ele>91.046</ele>
        <time>2011-04-10T09:04:31Z</time>
      </trkpt>
      <trkpt lat="48.42708" lon="-4.47653">
        <ele>91.348</ele>
        <time>2011-04-10T09:04:44Z</time>
      </trkpt>
      <trkpt lat="48.427" lon="-4.47627">
        <ele>90.453</ele>
        <time>2011-04-10T09:04:50Z</time>
      </trkpt>
      <trkpt lat="48.42703" lon="-4.4762">
        <ele>90.439</ele>
        <time>2011-04-10T09:04:51Z</time>
      </trkpt>
      <trkpt lat="48.42742" lon="-4.47483">
        <ele>90.787</ele>
        <time>2011-04-10T09:05:10Z</time>
      </trkpt>
      <trkpt lat="48.42753" lon="-4.47403">
        <ele>89.349</ele>
        <time>2011-04-10T09:05:20Z</time>
      </trkpt>
      <trkpt lat="48.42731" lon="-4.47355">
        <ele>89.059</ele>
        <time>2011-04-10T09:05:27Z</time>
      </trkpt>
      <trkpt lat="48.42725" lon="-4.47354">
        <ele>89.001</ele>
        <time>2011-04-10T09:05:28Z</time>
      </trkpt>
      <trkpt lat="48.42627" lon="-4.47319">
        <ele>89.841</ele>
        <time>2011-04-10T09:05:46Z</time>
      </trkpt>
      <trkpt lat="48.42599" lon="-4.47295">
        <ele>90.163</ele>
        <time>2011-04-10T09:05:52Z</time>
      </trkpt>
      <trkpt lat="48.42589" lon="-4.47285">
        <ele>89.763</ele>
        <time>2011-04-10T09:05:56Z</time>
      </trkpt>
      <trkpt lat="48.4256" lon="-4.47275">
        <ele>89.571</ele>
        <time>2011-04-10T09:05:59Z</time>
      </trkpt>
      <trkpt lat="48.42535" lon="-4.47275">
        <ele>88.809</ele>
        <time>2011-04-10T09:06:03Z</time>
      </trkpt>
      <trkpt lat="48.42448" lon="-4.47313">
        <ele>87.885</ele>
        <time>2011-04-10T09:06:17Z</time>
      </trkpt>
      <trkpt lat="48.42424" lon="-4.47345">
        <ele>87.742</ele>
        <time>2011-04-10T09:06:22Z</time>
      </trkpt>
      <trkpt lat="48.42333" lon="-4.47527">
        <ele>88.337</ele>
        <time>2011-04-10T09:06:46Z</time>
      </trkpt>
      <trkpt lat="48.42305" lon="-4.47578">
        <ele>87.153</ele>
        <time>2011-04-10T09:06:53Z</time>
      </trkpt>
      <trkpt lat="48.42301" lon="-4.47605">
        <ele>87.535</ele>
        <time>2011-04-10T09:06:56Z</time>
      </trkpt>
      <trkpt lat="48.42284" lon="-4.47616">
        <ele>88.138</ele>
        <time>2011-04-10T09:07:00Z</time>
      </trkpt>
      <trkpt lat="48.4226" lon="-4.47632">
        <ele>86.054</ele>
        <time>2011-04-10T09:07:04Z</time>
      </trkpt>
      <trkpt lat="48.42246" lon="-4.47641">
        <ele>84.754</ele>
        <time>2011-04-10T09:07:07Z</time>
      </trkpt>
      <trkpt lat="48.42196" lon="-4.47673">
        <ele>82.87</ele>
        <time>2011-04-10T09:07:13Z</time>
      </trkpt>
      <trkpt lat="48.4213" lon="-4.47706">
        <ele>79.505</ele>
        <time>2011-04-10T09:07:21Z</time>
      </trkpt>
      <trkpt lat="48.42112" lon="-4.47709">
        <ele>78.025</ele>
        <time>2011-04-10T09:07:23Z</time>
      </trkpt>
      <trkpt lat="48.4207" lon="-4.47711">
        <ele>78.513</ele>
        <time>2011-04-10T09:07:28Z</time>
      </trkpt>
      <trkpt lat="48.41996" lon="-4.47695">
        <ele>82.577</ele>
        <time>2011-04-10T09:07:40Z</time>
      </trkpt>
      <trkpt lat="48.41991" lon="-4.47694">
        <ele>82.867</ele>
        <time>2011-04-10T09:07:41Z</time>
      </trkpt>
      <trkpt lat="48.41916" lon="-4.47681">
        <ele>85.937</ele>
        <time>2011-04-10T09:07:55Z</time>
      </trkpt>
      <trkpt lat="48.41824" lon="-4.4767">
        <ele>89.018</ele>
        <time>2011-04-10T09:08:12Z</time>
      </trkpt>
      <trkpt lat="48.41737" lon="-4.47641">
        <ele>91.357</ele>
        <time>2011-04-10T09:08:30Z</time>
      </trkpt>
      <trkpt lat="48.41649" lon="-4.47592">
        <ele>90.092</ele>
        <time>2011-04-10T09:08:49Z</time>
      </trkpt>
      <trkpt lat="48.41644" lon="-4.47589">
        <ele>89.588</ele>
        <time>2011-04-10T09:08:50Z</time>
      </trkpt>
      <trkpt lat="48.41608" lon="-4.4757">
        <ele>85.319</ele>
        <time>2011-04-10T09:08:55Z</time>
      </trkpt>
      <trkpt lat="48.41575" lon="-4.47552">
        <ele>81.09</ele>
        <time>2011-04-10T09:08:59Z</time>
      </trkpt>
      <trkpt lat="48.41517" lon="-4.4753">
        <ele>77.165</ele>
        <time>2011-04-10T09:09:05Z</time>
      </trkpt>
      <trkpt lat="48.41475" lon="-4.47515">
        <ele>74.988</ele>
        <time>2011-04-10T09:09:09Z</time>
      </trkpt>
      <trkpt lat="48.41453" lon="-4.47513">
        <ele>74.163</ele>
        <time>2011-04-10T09:09:11Z</time>
      </trkpt>
      <trkpt lat="48.4139" lon="-4.47521">
        <ele>70.807</ele>
        <time>2011-04-10T09:09:17Z</time>
      </trkpt>
      <trkpt lat="48.41311" lon="-4.47555">
        <ele>69.162</ele>
        <time>2011-04-10T09:09:25Z</time>
      </trkpt>
      <trkpt lat="48.41263" lon="-4.47573">
        <ele>70.875</ele>
        <time>2011-04-10T09:09:32Z</time>
      </trkpt>
      <trkpt lat="48.41263" lon="-4.47573">
        <ele>70.295</ele>
        <time>2011-04-10T09:09:35Z</time>
      </trkpt>
      <trkpt lat="48.41197" lon="-4.47596">
        <ele>69.728</ele>
        <time>2011-04-10T09:09:44Z</time>
      </trkpt>
      <trkpt lat="48.41054" lon="-4.47628">
        <ele>68.78</ele>
        <time>2011-04-10T09:10:05Z</time>
      </trkpt>
      <trkpt lat="48.40964" lon="-4.47617">
        <ele>68.657</ele>
        <time>2011-04-10T09:10:19Z</time>
      </trkpt>
      <trkpt lat="48.40923" lon="-4.47612">
        <ele>67.142</ele>
        <time>2011-04-10T09:10:25Z</time>
      </trkpt>
      <trkpt lat="48.40882" lon="-4.47597">
        <ele>65.598</ele>
        <time>2011-04-10T09:10:31Z</time>
      </trkpt>
      <trkpt lat="48.40801" lon="-4.47553">
        <ele>62.324</ele>
        <time>2011-04-10T09:10:42Z</time>
      </trkpt>
      <trkpt lat="48.40757" lon="-4.4754">
        <ele>59.08</ele>
        <time>2011-04-10T09:10:47Z</time>
      </trkpt>
      <trkpt lat="48.40729" lon="-4.47534">
        <ele>58.475</ele>
        <time>2011-04-10T09:10:50Z</time>
      </trkpt>
      <trkpt lat="48.40698" lon="-4.4754">
        <ele>60.712</ele>
        <time>2011-04-10T09:10:54Z</time>
      </trkpt>
      <trkpt lat="48.40684" lon="-4.47543">
        <ele>61.962</ele>
        <time>2011-04-10T09:10:57Z</time>
      </trkpt>
      <trkpt lat="48.40678" lon="-4.47565">
        <ele>62.135</ele>
        <time>2011-04-10T09:10:58Z</time>
      </trkpt>
      <trkpt lat="48.40672" lon="-4.47582">
        <ele>61.83</ele>
        <time>2011-04-10T09:11:00Z</time>
      </trkpt>
      <trkpt lat="48.40652" lon="-4.47615">
        <ele>63.521</ele>
        <time>2011-04-10T09:11:05Z</time>
      </trkpt>
      <trkpt lat="48.4064" lon="-4.47631">
        <ele>64.77</ele>
        <time>2011-04-10T09:11:08Z</time>
      </trkpt>
      <trkpt lat="48.40623" lon="-4.4765">
        <ele>66.59</ele>
        <time>2011-04-10T09:11:14Z</time>
      </trkpt>
      <trkpt lat="48.4061" lon="-4.47671">
        <ele>66.927</ele>
        <time>2011-04-10T09:11:16Z</time>
      </trkpt>
      <trkpt lat="48.40545" lon="-4.47771">
        <ele>63.973</ele>
        <time>2011-04-10T09:11:31Z</time>
      </trkpt>
      <trkpt lat="48.40523" lon="-4.47805">
        <ele>65.657</ele>
        <time>2011-04-10T09:11:39Z</time>
      </trkpt>
      <trkpt lat="48.40466" lon="-4.47886">
        <ele>66.904</ele>
        <time>2011-04-10T09:11:55Z</time>
      </trkpt>
      <trkpt lat="48.40371" lon="-4.48023">
        <ele>65.541</ele>
        <time>2011-04-10T09:12:17Z</time>
      </trkpt>
      <trkpt lat="48.40294" lon="-4.48139">
        <ele>66.366</ele>
        <time>2011-04-10T09:12:38Z</time>
      </trkpt>
      <trkpt lat="48.40248" lon="-4.48205">
        <ele>64.586</ele>
        <time>2011-04-10T09:12:53Z</time>
      </trkpt>
      <trkpt lat="48.40169" lon="-4.48328">
        <ele>62.292</ele>
        <time>2011-04-10T09:13:13Z</time>
      </trkpt>
      <trkpt lat="48.40147" lon="-4.48362">
        <ele>61.782</ele>
        <time>2011-04-10T09:13:23Z</time>
      </trkpt>
      <trkpt lat="48.4013" lon="-4.48389">
        <ele>59.108</ele>
        <time>2011-04-10T09:13:34Z</time>
      </trkpt>
      <trkpt lat="48.40117" lon="-4.4841">
        <ele>55.693</ele>
        <time>2011-04-10T09:13:39Z</time>
      </trkpt>
      <trkpt lat="48.40082" lon="-4.48455">
        <ele>53.468</ele>
        <time>2011-04-10T09:13:43Z</time>
      </trkpt>
      <trkpt lat="48.40064" lon="-4.4848">
        <ele>51.538</ele>
        <time>2011-04-10T09:13:46Z</time>
      </trkpt>
      <trkpt lat="48.40005" lon="-4.48564">
        <ele>55.094</ele>
        <time>2011-04-10T09:13:58Z</time>
      </trkpt>
      <trkpt lat="48.39999" lon="-4.48573">
        <ele>55.61</ele>
        <time>2011-04-10T09:14:08Z</time>
      </trkpt>
      <trkpt lat="48.3999" lon="-4.48585">
        <ele>55.09</ele>
        <time>2011-04-10T09:14:19Z</time>
      </trkpt>
      <trkpt lat="48.3993" lon="-4.48677">
        <ele>56.335</ele>
        <time>2011-04-10T09:14:35Z</time>
      </trkpt>
      <trkpt lat="48.39861" lon="-4.48792">
        <ele>59.143</ele>
        <time>2011-04-10T09:14:54Z</time>
      </trkpt>
      <trkpt lat="48.39808" lon="-4.48876">
        <ele>61.281</ele>
        <time>2011-04-10T09:15:13Z</time>
      </trkpt>
      <trkpt lat="48.39807" lon="-4.48878">
        <ele>61.408</ele>
        <time>2011-04-10T09:15:26Z</time>
      </trkpt>
      <trkpt lat="48.39795" lon="-4.48907">
        <ele>60.529</ele>
        <time>2011-04-10T09:15:55Z</time>
      </trkpt>
      <trkpt lat="48.39795" lon="-4.48907">
        <ele>60.347</ele>
        <time>2011-04-10T09:15:57Z</time>
      </trkpt>
      <trkpt lat="48.39761" lon="-4.48939">
        <ele>61.051</ele>
        <time>2011-04-10T09:16:05Z</time>
      </trkpt>
      <trkpt lat="48.39757" lon="-4.48934">
        <ele>61.464</ele>
        <time>2011-04-10T09:16:06Z</time>
      </trkpt>
      <trkpt lat="48.39752" lon="-4.4892">
        <ele>62.025</ele>
        <time>2011-04-10T09:16:09Z</time>
      </trkpt>
      <trkpt lat="48.39723" lon="-4.48899">
        <ele>62.895</ele>
        <time>2011-04-10T09:16:14Z</time>
      </trkpt>
      <trkpt lat="48.3966" lon="-4.4888">
        <ele>66.203</ele>
        <time>2011-04-10T09:16:27Z</time>
      </trkpt>
      <trkpt lat="48.39602" lon="-4.48863">
        <ele>69.246</ele>
        <time>2011-04-10T09:16:39Z</time>
      </trkpt>
      <trkpt lat="48.39533" lon="-4.48845">
        <ele>69.377</ele>
        <time>2011-04-10T09:16:55Z</time>
      </trkpt>
      <trkpt lat="48.39448" lon="-4.48821">
        <ele>66.22</ele>
        <time>2011-04-10T09:17:10Z</time>
      </trkpt>
      <trkpt lat="48.3936" lon="-4.48795">
        <ele>64.056</ele>
        <time>2011-04-10T09:17:24Z</time>
      </trkpt>
      <trkpt lat="48.39283" lon="-4.48773">
        <ele>60.989</ele>
        <time>2011-04-10T09:17:35Z</time>
      </trkpt>
      <trkpt lat="48.39231" lon="-4.48758">
        <ele>59.452</ele>
        <time>2011-04-10T09:17:42Z</time>
      </trkpt>
      <trkpt lat="48.39189" lon="-4.48782">
        <ele>57.595</ele>
        <time>2011-04-10T09:17:48Z</time>
      </trkpt>
      <trkpt lat="48.39171" lon="-4.48802">
        <ele>56.087</ele>
        <time>2011-04-10T09:17:51Z</time>
      </trkpt>
      <trkpt lat="48.39161" lon="-4.48815">
        <ele>55.732</ele>
        <time>2011-04-10T09:17:53Z</time>
      </trkpt>
      <trkpt lat="48.39155" lon="-4.48863">
        <ele>54.996</ele>
        <time>2011-04-10T09:17:58Z</time>
      </trkpt>
      <trkpt lat="48.39203" lon="-4.48957">
        <ele>51.976</ele>
        <time>2011-04-10T09:18:10Z</time>
      </trkpt>
      <trkpt lat="48.3926" lon="-4.49068">
        <ele>48.901</ele>
        <time>2011-04-10T09:18:23Z</time>
      </trkpt>
      <trkpt lat="48.39289" lon="-4.4912">
        <ele>45.327</ele>
        <time>2011-04-10T09:18:29Z</time>
      </trkpt>
      <trkpt lat="48.3932" lon="-4.49172">
        <ele>42.982</ele>
        <time>2011-04-10T09:18:35Z</time>
      </trkpt>
      <trkpt lat="48.39337" lon="-4.49201">
        <ele>39.794</ele>
        <time>2011-04-10T09:18:38Z</time>
      </trkpt>
      <trkpt lat="48.39342" lon="-4.4921">
        <ele>39.551</ele>
        <time>2011-04-10T09:18:39Z</time>
      </trkpt>
      <trkpt lat="48.394" lon="-4.49328">
        <ele>39.13</ele>
        <time>2011-04-10T09:18:53Z</time>
      </trkpt>
      <trkpt lat="48.39403" lon="-4.49382">
        <ele>39.744</ele>
        <time>2011-04-10T09:19:00Z</time>
      </trkpt>
      <trkpt lat="48.39379" lon="-4.49508">
        <ele>43.364</ele>
        <time>2011-04-10T09:19:17Z</time>
      </trkpt>
      <trkpt lat="48.39352" lon="-4.49637">
        <ele>46.908</ele>
        <time>2011-04-10T09:19:33Z</time>
      </trkpt>
      <trkpt lat="48.39323" lon="-4.49778">
        <ele>49.911</ele>
        <time>2011-04-10T09:19:53Z</time>
      </trkpt>
      <trkpt lat="48.39275" lon="-4.50001">
        <ele>53.04</ele>
        <time>2011-04-10T09:20:28Z</time>
      </trkpt>
      <trkpt lat="48.39233" lon="-4.5021">
        <ele>51.118</ele>
        <time>2011-04-10T09:20:56Z</time>
      </trkpt>
      <trkpt lat="48.39204" lon="-4.50357">
        <ele>50.437</ele>
        <time>2011-04-10T09:21:12Z</time>
      </trkpt>
      <trkpt lat="48.39203" lon="-4.50362">
        <ele>50.478</ele>
        <time>2011-04-10T09:21:15Z</time>
      </trkpt>
      <trkpt lat="48.39186" lon="-4.50427">
        <ele>51.571</ele>
        <time>2011-04-10T09:21:21Z</time>
      </trkpt>
      <trkpt lat="48.39163" lon="-4.50543">
        <ele>54.833</ele>
        <time>2011-04-10T09:21:36Z</time>
      </trkpt>
      <trkpt lat="48.39127" lon="-4.50659">
        <ele>54.989</ele>
        <time>2011-04-10T09:21:52Z</time>
      </trkpt>
      <trkpt lat="48.39007" lon="-4.50737">
        <ele>53.79</ele>
        <time>2011-04-10T09:22:12Z</time>
      </trkpt>
      <trkpt lat="48.38933" lon="-4.50821">
        <ele>56.955</ele>
        <time>2011-04-10T09:22:27Z</time>
      </trkpt>
      <trkpt lat="48.38918" lon="-4.50894">
        <ele>60.514</ele>
        <time>2011-04-10T09:22:40Z</time>
      </trkpt>
      <trkpt lat="48.38916" lon="-4.50899">
        <ele>60.754</ele>
        <time>2011-04-10T09:22:41Z</time>
      </trkpt>
      <trkpt lat="48.38908" lon="-4.50934">
        <ele>62.399</ele>
        <time>2011-04-10T09:22:48Z</time>
      </trkpt>
      <trkpt lat="48.38875" lon="-4.51012">
        <ele>65.546</ele>
        <time>2011-04-10T09:23:05Z</time>
      </trkpt>
      <trkpt lat="48.38855" lon="-4.51069">
        <ele>68.955</ele>
        <time>2011-04-10T09:23:18Z</time>
      </trkpt>
      <trkpt lat="48.3882" lon="-4.51171">
        <ele>71.872</ele>
        <time>2011-04-10T09:23:40Z</time>
      </trkpt>
      <trkpt lat="48.38809" lon="-4.51201">
        <ele>74.143</ele>
        <time>2011-04-10T09:23:50Z</time>
      </trkpt>
      <trkpt lat="48.38805" lon="-4.51196">
        <ele>73.846</ele>
        <time>2011-04-10T09:23:54Z</time>
      </trkpt>
      <trkpt lat="48.38787" lon="-4.51178">
        <ele>72.377</ele>
        <time>2011-04-10T09:24:01Z</time>
      </trkpt>
      <trkpt lat="48.38771" lon="-4.51162">
        <ele>71.999</ele>
        <time>2011-04-10T09:24:04Z</time>
      </trkpt>
      <trkpt lat="48.38757" lon="-4.51148">
        <ele>70.606</ele>
        <time>2011-04-10T09:24:07Z</time>
      </trkpt>
      <trkpt lat="48.3872" lon="-4.51111">
        <ele>69.561</ele>
        <time>2011-04-10T09:24:15Z</time>
      </trkpt>
      <trkpt lat="48.38689" lon="-4.51101">
        <ele>67.27</ele>
        <time>2011-04-10T09:24:25Z</time>
      </trkpt>
      <trkpt lat="48.38671" lon="-4.51096">
        <ele>67.327</ele>
        <time>2011-04-10T09:24:31Z</time>
      </trkpt>
      <trkpt lat="48.38649" lon="-4.51142">
        <ele>68.52</ele>
        <time>2011-04-10T09:24:37Z</time>
      </trkpt>
      <trkpt lat="48.38639" lon="-4.51162">
        <ele>69.356</ele>
        <time>2011-04-10T09:24:41Z</time>
      </trkpt>
      <trkpt lat="48.38633" lon="-4.51178">
        <ele>70.328</ele>
        <time>2011-04-10T09:24:44Z</time>
      </trkpt>
      <trkpt lat="48.38613" lon="-4.51192">
        <ele>70.981</ele>
        <time>2011-04-10T09:24:50Z</time>
      </trkpt>
      <trkpt lat="48.38598" lon="-4.51189">
        <ele>69.658</ele>
        <time>2011-04-10T09:24:53Z</time>
      </trkpt>
      <trkpt lat="48.38532" lon="-4.51167">
        <ele>68.004</ele>
        <time>2011-04-10T09:25:04Z</time>
      </trkpt>
      <trkpt lat="48.38486" lon="-4.51153">
        <ele>68.813</ele>
        <time>2011-04-10T09:25:13Z</time>
      </trkpt>
      <trkpt lat="48.3844" lon="-4.51163">
        <ele>72.071</ele>
        <time>2011-04-10T09:25:24Z</time>
      </trkpt>
      <trkpt lat="48.38429" lon="-4.51167">
        <ele>72.537</ele>
        <time>2011-04-10T09:25:27Z</time>
      </trkpt>
      <trkpt lat="48.38419" lon="-4.51145">
        <ele>71.718</ele>
        <time>2011-04-10T09:25:31Z</time>
      </trkpt>
      <trkpt lat="48.38409" lon="-4.51052">
        <ele>68.478</ele>
        <time>2011-04-10T09:25:42Z</time>
      </trkpt>
      <trkpt lat="48.38401" lon="-4.50975">
        <ele>65.36</ele>
        <time>2011-04-10T09:25:49Z</time>
      </trkpt>
      <trkpt lat="48.38395" lon="-4.5093">
        <ele>63.989</ele>
        <time>2011-04-10T09:25:53Z</time>
      </trkpt>
      <trkpt lat="48.38384" lon="-4.50905">
        <ele>64.251</ele>
        <time>2011-04-10T09:25:57Z</time>
      </trkpt>
      <trkpt lat="48.38325" lon="-4.50913">
        <ele>63.572</ele>
        <time>2011-04-10T09:26:11Z</time>
      </trkpt>
    </trkseg>
  </trk>
  <trk>
    <name><![CDATA[ACTIVE LOG121654]]></name>
    <trkseg>
      <trkpt lat="48.38324" lon="-4.50926">
        <ele>70.753</ele>
        <time>2011-04-10T10:16:54Z</time>
      </trkpt>
    </trkseg>
  </trk>
</gpx>